BY6750 / G-FDZX 7700 Squawk Report (21st of July, 2018)

Time Lat Lon Altitude Heading Speed Vertical Rate
2018-07-21 10:35:14 GMT 48.727020 2.399949 0 253 8 0
2018-07-21 10:35:17 GMT 48.726334 2.396005 350 255 145 -768
2018-07-21 10:35:13 GMT 48.727020 2.399949 350 255 145 -768
2018-07-21 10:35:06 GMT 48.728275 2.406656 425 255 146 -640
2018-07-21 10:34:55 GMT 48.730270 2.417626 550 255 145 -704
2018-07-21 10:34:45 GMT 48.732281 2.428701 700 255 146 -1024
2018-07-21 10:34:36 GMT 48.733814 2.436796 825 255 149 -768
2018-07-21 10:34:33 GMT 48.734207 2.439106 850 255 149 -640
2018-07-21 10:34:29 GMT 48.735119 2.444024 900 254 148 -832
2018-07-21 10:34:26 GMT 48.735725 2.447205 950 255 147 -640
2018-07-21 10:34:22 GMT 48.736282 2.450168 1,000 255 147 -640
2018-07-21 10:34:18 GMT 48.737213 2.455155 1,125 255 148 -768
2018-07-21 10:34:12 GMT 48.738239 2.460721 1,125 255 146 -704
2018-07-21 10:34:07 GMT 48.738968 2.464952 1,175 255 145 -704
2018-07-21 10:34:01 GMT 48.740204 2.471642 1,275 254 148 -832
2018-07-21 10:33:58 GMT 48.740936 2.475445 1,325 254 151 -640
2018-07-21 10:33:55 GMT 48.741219 2.476911 1,350 255 154 -768
2018-07-21 10:33:50 GMT 48.742264 2.482417 1,475 256 160 -832
2018-07-21 10:33:47 GMT 48.742752 2.485079 1,450 256 161 -768
2018-07-21 10:33:44 GMT 48.743408 2.488826 1,500 256 164 -768
2018-07-21 10:33:39 GMT 48.744553 2.495375 1,575 254 162 -896
2018-07-21 10:33:36 GMT 48.745010 2.497559 1,600 255 163 -768
2018-07-21 10:33:33 GMT 48.745560 2.500587 1,700 256 164 -768
2018-07-21 10:33:30 GMT 48.746292 2.504601 1,700 256 164 -768
2018-07-21 10:33:27 GMT 48.746944 2.508280 1,750 255 165 -832
2018-07-21 10:33:22 GMT 48.747894 2.513263 1,800 255 167 -1024
2018-07-21 10:33:18 GMT 48.748760 2.518110 1,900 255 168 -768
2018-07-21 10:33:15 GMT 48.749268 2.520940 1,900 255 168 -704
2018-07-21 10:33:11 GMT 48.750137 2.525517 2,000 255 172 -768
2018-07-21 10:33:06 GMT 48.751270 2.531915 2,050 255 175 -960
2018-07-21 10:33:00 GMT 48.752609 2.539321 2,125 255 171 -832
2018-07-21 10:32:55 GMT 48.753479 2.544039 2,200 254 167 -704
2018-07-21 10:32:49 GMT 48.754906 2.551502 2,275 255 162 -704
2018-07-21 10:32:45 GMT 48.755554 2.555189 2,300 255 163 -576
2018-07-21 10:32:39 GMT 48.756905 2.562272 2,375 254 166 -448
2018-07-21 10:32:35 GMT 48.757881 2.567404 2,400 255 168 -512
2018-07-21 10:32:31 GMT 48.758514 2.570942 2,525 261 174 -768
2018-07-21 10:32:28 GMT 48.759247 2.575097 2,475 259 173 -704
2018-07-21 10:32:24 GMT 48.759888 2.580097 2,525 263 175 -576
2018-07-21 10:32:20 GMT 48.760208 2.583970 2,575 273 183 0
2018-07-21 10:32:15 GMT 48.760437 2.589956 2,575 276 183 -64
2018-07-21 10:32:12 GMT 48.760300 2.593759 2,600 282 184 -384
2018-07-21 10:32:09 GMT 48.759842 2.597351 2,625 291 185 -896
2018-07-21 10:32:04 GMT 48.758022 2.604772 2,700 293 186 -1024
2018-07-21 10:32:00 GMT 48.756626 2.610120 2,775 292 187 -320
2018-07-21 10:31:51 GMT 48.753891 2.620873 2,850 291 190 -832
2018-07-21 10:31:48 GMT 48.753323 2.623203 2,875 292 190 -448
2018-07-21 10:31:43 GMT 48.751602 2.629817 3,075 295 192 -640
2018-07-21 10:31:38 GMT 48.749641 2.636285 3,000 309 195 -896
2018-07-21 10:31:31 GMT 48.745880 2.643832 3,075 322 200 -832
2018-07-21 10:31:27 GMT 48.743362 2.647142 3,100 329 203 -768
2018-07-21 10:31:22 GMT 48.737865 2.651825 3,225 345 207 -1216
2018-07-21 10:31:16 GMT 48.732742 2.653973 3,225 355 211 -960
2018-07-21 10:31:11 GMT 48.728851 2.654607 3,275 1 215 -960
2018-07-21 10:31:08 GMT 48.725761 2.654644 3,275 2 215 -896
2018-07-21 10:31:05 GMT 48.721760 2.654355 3,350 3 217 -832
2018-07-21 10:30:58 GMT 48.716034 2.653902 3,425 2 219 -1152
2018-07-21 10:30:55 GMT 48.711842 2.653560 3,500 3 219 -1472
2018-07-21 10:30:51 GMT 48.708298 2.653269 3,600 3 220 -960
2018-07-21 10:30:46 GMT 48.703217 2.652705 3,650 3 221 -256
2018-07-21 10:30:43 GMT 48.700253 2.652475 3,675 2 224 -320
2018-07-21 10:30:40 GMT 48.696854 2.652212 3,700 2 225 -704
2018-07-21 10:30:37 GMT 48.693829 2.652042 3,725 2 226 -704
2018-07-21 10:30:34 GMT 48.686520 2.651464 3,800 4 229 -640
2018-07-21 10:30:30 GMT 48.685959 2.651438 3,800 4 229 -640
2018-07-21 10:30:18 GMT 48.673737 2.648198 3,900 33 241 -1472
2018-07-21 10:30:11 GMT 48.667419 2.643409 4,000 35 241 -1408
2018-07-21 10:30:08 GMT 48.664593 2.640405 4,075 43 244 -1280
2018-07-21 10:30:05 GMT 48.662403 2.637514 4,075 43 244 -1280
2018-07-21 10:30:02 GMT 48.660076 2.633828 4,125 52 246 -1216
2018-07-21 10:29:56 GMT 48.655930 2.624958 4,200 62 250 -1024
2018-07-21 10:29:50 GMT 48.652725 2.615309 4,250 65 252 -512
2018-07-21 10:29:47 GMT 48.650986 2.609535 4,300 65 255 -576
2018-07-21 10:29:44 GMT 48.649384 2.604394 4,325 65 263 -256
2018-07-21 10:29:40 GMT 48.647781 2.599182 4,350 65 258 -576
2018-07-21 10:29:35 GMT 48.645180 2.590461 4,425 65 274 -1152
2018-07-21 10:29:31 GMT 48.643295 2.584322 4,425 65 265 -512
2018-07-21 10:29:25 GMT 48.639999 2.573547 4,475 65 267 -896
2018-07-21 10:29:22 GMT 48.638523 2.568632 4,525 65 269 -896
2018-07-21 10:29:19 GMT 48.636978 2.563688 4,575 65 271 -1088
2018-07-21 10:29:14 GMT 48.634659 2.555911 4,650 65 273 -1216
2018-07-21 10:29:11 GMT 48.632889 2.550057 4,725 65 275 -1088
2018-07-21 10:29:08 GMT 48.631439 2.545307 4,775 65 275 -1024
2018-07-21 10:29:03 GMT 48.628979 2.537047 4,850 65 279 -640
2018-07-21 10:28:57 GMT 48.625301 2.524976 4,925 65 281 -640
2018-07-21 10:28:52 GMT 48.623020 2.517387 4,950 65 287 -64
2018-07-21 10:28:47 GMT 48.620182 2.507846 4,950 65 293 -192
2018-07-21 10:28:42 GMT 48.616692 2.496282 4,950 65 298 64
2018-07-21 10:28:37 GMT 48.614361 2.488692 4,950 65 303 0
2018-07-21 10:28:33 GMT 48.611984 2.480797 4,950 65 308 0
2018-07-21 10:28:29 GMT 48.608822 2.470406 4,950 65 314 0
2018-07-21 10:28:26 GMT 48.607006 2.464407 4,950 65 319 -64
2018-07-21 10:28:23 GMT 48.605438 2.459388 4,950 64 324 0
2018-07-21 10:28:18 GMT 48.602863 2.451108 4,950 64 326 0
2018-07-21 10:28:15 GMT 48.600536 2.443663 4,950 64 330 -64
2018-07-21 10:28:12 GMT 48.598862 2.438314 4,950 64 337 -192
2018-07-21 10:28:09 GMT 48.596581 2.431086 4,950 64 338 -192
2018-07-21 10:28:04 GMT 48.593307 2.420654 4,975 64 344 -640
2018-07-21 10:28:00 GMT 48.591320 2.414390 5,000 64 347 -832
2018-07-21 10:27:55 GMT 48.587410 2.402103 5,100 64 352 -1408
2018-07-21 10:27:50 GMT 48.584381 2.392345 5,200 64 355 -1664
2018-07-21 10:27:47 GMT 48.581867 2.384322 5,275 64 356 -1728
2018-07-21 10:27:44 GMT 48.580078 2.378681 5,400 64 359 -2176
2018-07-21 10:27:40 GMT 48.576599 2.367413 5,525 64 358 -2176
2018-07-21 10:27:37 GMT 48.574097 2.359459 5,650 64 359 -2304
2018-07-21 10:27:30 GMT 48.570137 2.346810 5,900 64 357 -3584
2018-07-21 10:27:23 GMT 48.565063 2.330619 6,325 64 357 -3456
2018-07-21 10:27:20 GMT 48.562546 2.322763 6,525 64 358 -2944
2018-07-21 10:27:14 GMT 48.558594 2.310381 6,800 64 358 -2560
2018-07-21 10:27:09 GMT 48.554775 2.298166 7,000 64 360 -2496
2018-07-21 10:27:01 GMT 48.549179 2.280226 7,400 65 360 -2496
2018-07-21 10:26:58 GMT 48.547279 2.274098 7,450 64 361 -2560
2018-07-21 10:26:52 GMT 48.543045 2.260437 7,700 64 361 -2496
2018-07-21 10:26:47 GMT 48.539154 2.247831 7,925 65 362 -2496
2018-07-21 10:26:42 GMT 48.535130 2.234778 8,150 65 363 -2368
2018-07-21 10:26:38 GMT 48.532990 2.227912 8,275 65 364 -2368
2018-07-21 10:26:34 GMT 48.530289 2.219166 8,425 65 365 -2432
2018-07-21 10:26:30 GMT 48.527573 2.210153 8,650 65 376 -2112
2018-07-21 10:26:27 GMT 48.524937 2.201530 8,700 65 368 -2112
2018-07-21 10:26:24 GMT 48.522583 2.193885 8,825 65 370 -2112
2018-07-21 10:26:21 GMT 48.521164 2.189167 9,000 65 371 -2304
2018-07-21 10:26:17 GMT 48.518513 2.180497 9,025 65 372 -2304
2018-07-21 10:26:14 GMT 48.515301 2.170161 9,200 65 373 -2304
2018-07-21 10:26:11 GMT 48.513519 2.164307 9,300 65 374 -2240
2018-07-21 10:26:08 GMT 48.511780 2.158602 9,375 65 375 -2112
2018-07-21 10:26:05 GMT 48.509308 2.150574 9,500 65 376 -2112
2018-07-21 10:26:02 GMT 48.507568 2.144869 9,575 65 377 -2112
2018-07-21 10:25:57 GMT 48.503662 2.132215 9,825 65 380 -2304
2018-07-21 10:25:54 GMT 48.501751 2.125999 9,850 65 380 -2624
2018-07-21 10:25:51 GMT 48.498413 2.115150 10,050 64 380 -3136
2018-07-21 10:25:47 GMT 48.496170 2.107966 10,200 64 379 -3328
2018-07-21 10:25:44 GMT 48.494164 2.101497 10,525 64 378 -3840
2018-07-21 10:25:40 GMT 48.491180 2.091769 10,625 64 377 -3264
2018-07-21 10:25:37 GMT 48.488937 2.084656 10,775 64 378 -2048
2018-07-21 10:25:34 GMT 48.486145 2.075571 10,925 64 378 -1408
2018-07-21 10:25:28 GMT 48.481110 2.059303 11,000 64 380 0
2018-07-21 10:25:24 GMT 48.478867 2.052119 11,000 65 380 0
2018-07-21 10:25:17 GMT 48.473694 2.035358 11,000 65 379 0
2018-07-21 10:25:13 GMT 48.471176 2.027189 11,000 64 378 0
2018-07-21 10:25:08 GMT 48.467194 2.014301 11,000 64 378 0
2018-07-21 10:25:05 GMT 48.465302 2.008330 11,000 64 378 0
2018-07-21 10:25:02 GMT 48.462368 1.998789 11,000 64 378 0
2018-07-21 10:24:56 GMT 48.457855 1.984229 11,000 64 378 0
2018-07-21 10:24:51 GMT 48.454826 1.974431 10,975 64 380 0
2018-07-21 10:24:45 GMT 48.450165 1.959440 10,975 64 379 0
2018-07-21 10:24:41 GMT 48.447327 1.950355 10,975 64 380 0
2018-07-21 10:24:35 GMT 48.442566 1.935002 10,975 64 380 0
2018-07-21 10:24:31 GMT 48.439407 1.925002 10,975 64 380 0
2018-07-21 10:24:23 GMT 48.432907 1.904438 10,975 64 381 0
2018-07-21 10:24:19 GMT 48.430992 1.898466 10,975 64 382 0
2018-07-21 10:24:13 GMT 48.426105 1.883143 10,975 64 382 0
2018-07-21 10:24:08 GMT 48.422516 1.871831 11,050 64 383 -448
2018-07-21 10:24:04 GMT 48.418259 1.858380 11,000 64 383 -448
2018-07-21 10:23:55 GMT 48.411987 1.838661 11,050 64 383 -448
2018-07-21 10:23:52 GMT 48.410370 1.833633 11,150 64 384 -512
2018-07-21 10:23:47 GMT 48.406090 1.820117 11,150 64 384 -448
2018-07-21 10:23:42 GMT 48.402782 1.809492 11,150 64 384 -512
2018-07-21 10:23:34 GMT 48.396515 1.789433 11,225 64 384 -512
2018-07-21 10:23:30 GMT 48.393814 1.780701 11,275 64 385 -448
2018-07-21 10:23:25 GMT 48.388687 1.764292 11,300 64 385 -512
2018-07-21 10:23:22 GMT 48.387360 1.759925 11,375 64 384 -512
2018-07-21 10:23:19 GMT 48.385391 1.753657 11,375 64 384 -512
2018-07-21 10:23:16 GMT 48.382507 1.744432 11,375 64 384 -512
2018-07-21 10:23:13 GMT 48.380493 1.738164 11,400 64 385 -512
2018-07-21 10:23:10 GMT 48.377151 1.727600 11,450 64 385 -512
2018-07-21 10:23:03 GMT 48.372662 1.713289 11,500 64 385 -512
2018-07-21 10:23:00 GMT 48.370605 1.706825 11,550 64 386 -448
2018-07-21 10:22:52 GMT 48.364887 1.688642 11,575 64 386 -448
2018-07-21 10:22:49 GMT 48.362049 1.679390 11,600 64 386 -448
2018-07-21 10:22:42 GMT 48.356781 1.662668 11,675 64 386 -448
2018-07-21 10:22:39 GMT 48.354553 1.655683 11,675 64 386 -448
2018-07-21 10:22:35 GMT 48.350784 1.643794 11,725 64 386 -512
2018-07-21 10:22:29 GMT 48.346455 1.630024 11,775 64 386 -512
2018-07-21 10:22:26 GMT 48.345196 1.626121 11,775 64 386 -512
2018-07-21 10:22:17 GMT 48.337601 1.602243 11,875 64 386 -448
2018-07-21 10:22:09 GMT 48.331512 1.583115 11,925 64 389 0
2018-07-21 10:22:06 GMT 48.329590 1.577101 11,950 64 386 -448
2018-07-21 10:21:56 GMT 48.321579 1.551889 12,025 64 386 -448
2018-07-21 10:21:45 GMT 48.313354 1.526015 12,125 64 387 -512
2018-07-21 10:21:36 GMT 48.305954 1.502742 12,225 64 388 -512
2018-07-21 10:21:32 GMT 48.303486 1.494936 12,225 64 388 -512
2018-07-21 10:21:28 GMT 48.299423 1.482027 12,225 64 388 -512
2018-07-21 10:21:24 GMT 48.296356 1.472309 12,300 64 389 -448
2018-07-21 10:21:15 GMT 48.289474 1.450629 12,400 64 390 -512
2018-07-21 10:21:12 GMT 48.287064 1.443082 12,400 64 390 -512
2018-07-21 10:21:03 GMT 48.280769 1.423380 12,475 64 390 -448
2018-07-21 10:20:48 GMT 48.269348 1.387517 12,600 64 390 -448
2018-07-21 10:20:53 GMT 48.272736 1.398222 12,600 64 390 -448
2018-07-21 10:20:48 GMT 48.269348 1.387517 12,600 64 390 -448
2018-07-21 10:20:42 GMT 48.264633 1.372868 12,650 64 390 -448
2018-07-21 10:20:30 GMT 48.254929 1.342656 12,750 64 392 -512
2018-07-21 10:20:24 GMT 48.250397 1.328430 12,800 64 391 -512
2018-07-21 10:20:21 GMT 48.247669 1.319877 12,825 64 392 -512
2018-07-21 10:20:14 GMT 48.242783 1.304771 12,900 64 393 -448
2018-07-21 10:20:10 GMT 48.239731 1.295189 12,975 64 393 -448
2018-07-21 10:20:06 GMT 48.236500 1.285111 12,975 64 393 -448
2018-07-21 10:20:01 GMT 48.231995 1.271104 13,000 64 393 -448
2018-07-21 10:19:58 GMT 48.229980 1.264766 13,000 64 393 -448
2018-07-21 10:19:50 GMT 48.223743 1.245286 13,100 64 395 -512
2018-07-21 10:19:47 GMT 48.220642 1.235680 13,100 64 395 -512
2018-07-21 10:19:38 GMT 48.214188 1.215468 13,175 64 396 -512
2018-07-21 10:19:35 GMT 48.212009 1.208785 13,225 64 396 -512
2018-07-21 10:19:31 GMT 48.207642 1.195186 13,250 64 397 -512
2018-07-21 10:19:28 GMT 48.206039 1.190186 13,325 64 398 -448
2018-07-21 10:19:25 GMT 48.203659 1.182791 13,325 64 398 -448
2018-07-21 10:19:16 GMT 48.193203 1.150312 13,400 64 397 -448
2018-07-21 10:19:10 GMT 48.191761 1.145831 13,425 64 397 -512
2018-07-21 10:19:04 GMT 48.187153 1.131520 13,450 64 396 -512
2018-07-21 10:18:58 GMT 48.182281 1.116450 13,500 64 396 -512
2018-07-21 10:18:54 GMT 48.178028 1.103331 13,550 64 398 -512
2018-07-21 10:18:47 GMT 48.173126 1.088280 13,600 64 398 -512
2018-07-21 10:18:44 GMT 48.170628 1.080563 13,650 64 399 -512
2018-07-21 10:18:38 GMT 48.165894 1.065885 13,675 64 400 -448
2018-07-21 10:18:32 GMT 48.160946 1.050712 13,800 64 399 -448
2018-07-21 10:18:27 GMT 48.157265 1.039264 13,775 64 399 -512
2018-07-21 10:18:21 GMT 48.152847 1.025574 13,875 64 400 -448
2018-07-21 10:18:16 GMT 48.148235 1.011376 13,875 64 401 -448
2018-07-21 10:18:12 GMT 48.144424 0.999687 13,900 64 401 -448
2018-07-21 10:18:06 GMT 48.140320 0.987009 13,975 64 400 -448
2018-07-21 10:18:00 GMT 48.135406 0.971809 14,000 64 400 -512
2018-07-21 10:17:55 GMT 48.131569 0.960106 14,025 64 400 -512
2018-07-21 10:17:50 GMT 48.127567 0.947641 14,100 64 400 -512
2018-07-21 10:17:47 GMT 48.125145 0.940247 14,100 64 400 -512
2018-07-21 10:17:43 GMT 48.121811 0.929993 14,125 64 401 -512
2018-07-21 10:17:37 GMT 48.117184 0.915879 14,175 64 401 -512
2018-07-21 10:17:34 GMT 48.114349 0.907127 14,225 64 401 -512
2018-07-21 10:17:30 GMT 48.110596 0.895660 14,250 64 402 -512
2018-07-21 10:17:27 GMT 48.108490 0.889206 14,275 64 402 -448
2018-07-21 10:17:24 GMT 48.106152 0.881935 14,350 64 403 -448
2018-07-21 10:17:19 GMT 48.101913 0.868906 14,350 64 403 -512
2018-07-21 10:17:15 GMT 48.098984 0.859891 14,375 64 403 -512
2018-07-21 10:17:11 GMT 48.094559 0.846370 14,425 64 404 -512
2018-07-21 10:17:08 GMT 48.093258 0.842356 14,475 64 404 -448
2018-07-21 10:17:05 GMT 48.091232 0.836128 14,450 64 404 -512
2018-07-21 10:17:02 GMT 48.088440 0.827545 14,475 64 404 -448
2018-07-21 10:16:56 GMT 48.082642 0.809749 14,550 64 404 -448
2018-07-21 10:16:53 GMT 48.080750 0.803993 14,550 64 403 -448
2018-07-21 10:16:45 GMT 48.074310 0.784184 14,625 64 403 -448
2018-07-21 10:16:42 GMT 48.072166 0.777635 14,675 64 403 -448
2018-07-21 10:16:39 GMT 48.069809 0.770416 14,675 64 403 -448
2018-07-21 10:16:36 GMT 48.067154 0.762383 14,700 64 403 -448
2018-07-21 10:16:32 GMT 48.063648 0.751648 14,725 64 403 -448
2018-07-21 10:16:28 GMT 48.060390 0.741648 14,750 63 402 -448
2018-07-21 10:16:24 GMT 48.057457 0.732633 14,775 63 402 -448
2018-07-21 10:16:21 GMT 48.055069 0.725372 14,800 63 402 -512
2018-07-21 10:16:14 GMT 48.048843 0.706421 14,875 63 403 -512
2018-07-21 10:16:11 GMT 48.046692 0.699898 14,925 63 404 -448
2018-07-21 10:16:08 GMT 48.044083 0.691933 14,925 63 404 -448
2018-07-21 10:16:04 GMT 48.040375 0.680659 14,950 63 405 -448
2018-07-21 10:16:01 GMT 48.038315 0.674423 14,975 63 405 -448
2018-07-21 10:15:56 GMT 48.034599 0.663123 15,025 63 404 -512
2018-07-21 10:15:51 GMT 48.030579 0.650871 15,125 63 405 -512
2018-07-21 10:15:48 GMT 48.028221 0.643545 15,125 63 405 -512
2018-07-21 10:15:43 GMT 48.023430 0.629038 15,150 63 405 -448
2018-07-21 10:15:40 GMT 48.020168 0.619037 15,150 63 405 -448
2018-07-21 10:15:30 GMT 48.013184 0.597656 15,250 63 405 -448
2018-07-21 10:15:27 GMT 48.009602 0.586923 15,275 63 405 -448
2018-07-21 10:15:22 GMT 48.006088 0.576164 15,350 63 404 -768
2018-07-21 10:15:18 GMT 48.003319 0.567838 15,325 63 404 -1280
2018-07-21 10:15:12 GMT 47.997803 0.551102 15,425 63 404 -1280
2018-07-21 10:15:06 GMT 47.993450 0.537837 15,775 63 405 -1600
2018-07-21 10:15:02 GMT 47.989380 0.525558 15,675 63 406 -1600
2018-07-21 10:14:56 GMT 47.984928 0.512273 15,800 63 407 -1600
2018-07-21 10:14:51 GMT 47.980637 0.499397 15,950 63 409 -1664
2018-07-21 10:14:48 GMT 47.978039 0.491638 16,075 63 409 -1664
2018-07-21 10:14:44 GMT 47.974731 0.481819 16,175 63 409 -1728
2018-07-21 10:14:41 GMT 47.971848 0.473236 16,250 63 409 -1856
2018-07-21 10:14:38 GMT 47.969513 0.466164 16,325 63 410 -1984
2018-07-21 10:14:35 GMT 47.967133 0.459091 16,400 63 410 -2048
2018-07-21 10:14:30 GMT 47.962921 0.446457 16,575 63 411 -1984
2018-07-21 10:14:25 GMT 47.958767 0.434030 16,800 63 415 -2176
2018-07-21 10:14:22 GMT 47.955276 0.423523 16,875 63 416 -2368
2018-07-21 10:14:18 GMT 47.952347 0.414803 17,100 63 417 -2368
2018-07-21 10:14:14 GMT 47.949463 0.406013 17,125 63 418 -2368
2018-07-21 10:14:09 GMT 47.945408 0.393888 17,325 63 420 -2496
2018-07-21 10:14:04 GMT 47.940052 0.377831 17,750 63 423 -2496
2018-07-21 10:13:59 GMT 47.936188 0.366051 17,750 63 424 -2432
2018-07-21 10:13:56 GMT 47.933578 0.358223 18,150 63 429 -2624
2018-07-21 10:13:53 GMT 47.930283 0.348267 18,025 63 426 -2496
2018-07-21 10:13:49 GMT 47.927719 0.340370 18,250 64 428 -2944
2018-07-21 10:13:45 GMT 47.924179 0.329519 18,325 64 428 -2944
2018-07-21 10:13:41 GMT 47.919662 0.315716 18,575 63 428 -3264
2018-07-21 10:13:38 GMT 47.918335 0.311806 18,650 63 428 -3072
2018-07-21 10:13:35 GMT 47.915359 0.302742 18,825 63 428 -3264
2018-07-21 10:13:31 GMT 47.911697 0.291687 19,125 63 429 -3200
2018-07-21 10:13:27 GMT 47.908306 0.281349 19,400 63 429 -2816
2018-07-21 10:13:24 GMT 47.905651 0.273391 19,400 63 429 -2688
2018-07-21 10:13:20 GMT 47.902222 0.263054 19,650 63 429 -2944
2018-07-21 10:13:17 GMT 47.899834 0.255925 19,700 63 430 -3136
2018-07-21 10:13:14 GMT 47.896912 0.247192 19,850 63 429 -3264
2018-07-21 10:13:09 GMT 47.892471 0.234009 20,200 63 427 -3712
2018-07-21 10:13:06 GMT 47.890045 0.226593 20,425 63 427 -3648
2018-07-21 10:13:03 GMT 47.887573 0.219246 20,475 63 427 -3648
2018-07-21 10:12:59 GMT 47.882935 0.205289 20,775 63 427 -3392
2018-07-21 10:12:56 GMT 47.881676 0.201627 20,850 63 426 -3840
2018-07-21 10:12:52 GMT 47.877228 0.188210 21,200 63 423 -4672
2018-07-21 10:12:47 GMT 47.873158 0.175922 21,550 63 423 -4224
2018-07-21 10:12:42 GMT 47.869217 0.164177 21,875 63 423 -4096
2018-07-21 10:12:39 GMT 47.866547 0.156133 23,575 63 432 -3648
2018-07-21 10:12:35 GMT 47.862579 0.144402 22,325 63 432 -3648
2018-07-21 10:12:32 GMT 47.859924 0.136574 22,525 63 426 -3648
2018-07-21 10:12:28 GMT 47.857189 0.128456 24,150 63 436 -3584
2018-07-21 10:12:25 GMT 47.854111 0.119270 22,900 63 428 -3584
2018-07-21 10:12:21 GMT 47.850220 0.107666 23,175 63 431 -3584
2018-07-21 10:12:17 GMT 47.846901 0.097891 24,750 63 440 -3712
2018-07-21 10:12:14 GMT 47.844063 0.089440 23,700 63 433 -3584
2018-07-21 10:12:11 GMT 47.842163 0.083839 23,700 63 433 -3584
2018-07-21 10:12:08 GMT 47.838593 0.073196 23,925 63 434 -3520
2018-07-21 10:12:05 GMT 47.836334 0.066481 24,200 63 436 -3584
2018-07-21 10:12:02 GMT 47.833679 0.058453 24,250 63 436 -3584
2018-07-21 10:11:59 GMT 47.829620 0.046417 25,025 63 438 -3584
2018-07-21 10:11:55 GMT 47.827103 0.038864 24,675 63 439 -3648
2018-07-21 10:11:52 GMT 47.824093 0.029931 24,950 63 440 -3776
2018-07-21 10:11:49 GMT 47.821949 0.023452 25,200 63 442 -3712
2018-07-21 10:11:46 GMT 47.818832 0.014226 25,225 63 443 -3712
2018-07-21 10:11:42 GMT 47.814743 0.001991 25,500 63 436 -4864
2018-07-21 10:11:38 GMT 47.811939 -0.006479 26,175 63 443 -5184
2018-07-21 10:11:34 GMT 47.808449 -0.016902 25,925 63 445 -4352
2018-07-21 10:11:30 GMT 47.804771 -0.027818 26,250 63 442 -5504
2018-07-21 10:11:27 GMT 47.801971 -0.036255 27,050 63 436 -4224
2018-07-21 10:11:22 GMT 47.797508 -0.049509 27,050 63 437 -6080
2018-07-21 10:11:18 GMT 47.793365 -0.061833 27,625 63 436 -3968
2018-07-21 10:11:13 GMT 47.789337 -0.073814 27,725 63 436 -2752
2018-07-21 10:11:10 GMT 47.785267 -0.085848 28,000 62 439 0
2018-07-21 10:11:06 GMT 47.782894 -0.092820 27,975 62 439 0
2018-07-21 10:11:03 GMT 47.779724 -0.102242 27,975 62 438 64
2018-07-21 10:11:00 GMT 47.776375 -0.111553 28,000 60 439 64
2018-07-21 10:10:57 GMT 47.774422 -0.116835 28,000 59 439 0
2018-07-21 10:10:52 GMT 47.768784 -0.131149 28,000 59 439 0
2018-07-21 10:10:47 GMT 47.763840 -0.143578 28,000 59 439 0
2018-07-21 10:10:44 GMT 47.761322 -0.149757 28,000 59 438 0
2018-07-21 10:10:41 GMT 47.757710 -0.158809 28,000 59 439 0
2018-07-21 10:10:35 GMT 47.751469 -0.174302 28,000 59 438 0
2018-07-21 10:10:32 GMT 47.748955 -0.180500 28,000 59 438 0
2018-07-21 10:10:29 GMT 47.745838 -0.188247 28,000 59 413 -64
2018-07-21 10:10:24 GMT 47.738808 -0.205712 28,000 59 434 0
2018-07-21 10:10:20 GMT 47.735596 -0.213684 28,000 59 433 0
2018-07-21 10:10:14 GMT 47.729729 -0.228178 28,000 59 429 0
2018-07-21 10:10:11 GMT 47.726761 -0.235519 28,000 58 430 0
2018-07-21 10:10:07 GMT 47.722687 -0.245613 28,000 58 428 0
2018-07-21 10:10:04 GMT 47.718697 -0.255432 28,000 59 425 64
2018-07-21 10:10:01 GMT 47.716648 -0.260432 28,000 59 425 64
2018-07-21 10:09:57 GMT 47.712414 -0.270926 28,000 59 424 0
2018-07-21 10:09:53 GMT 47.707569 -0.282828 28,000 59 422 0
2018-07-21 10:09:50 GMT 47.705475 -0.288048 28,000 59 417 0
2018-07-21 10:09:43 GMT 47.698471 -0.305283 28,000 59 419 0
2018-07-21 10:09:40 GMT 47.695908 -0.311668 28,000 59 416 0
2018-07-21 10:09:36 GMT 47.691147 -0.323410 28,000 59 414 0
2018-07-21 10:09:32 GMT 47.687622 -0.332199 28,000 59 413 0
2018-07-21 10:09:29 GMT 47.685059 -0.338516 28,000 59 413 0
2018-07-21 10:09:26 GMT 47.681534 -0.347237 28,000 59 413 -128
2018-07-21 10:09:23 GMT 47.677731 -0.356704 28,000 59 415 -640
2018-07-21 10:09:19 GMT 47.674850 -0.363785 28,025 59 415 -640
2018-07-21 10:09:12 GMT 47.668350 -0.379921 28,075 59 417 -1088
2018-07-21 10:09:09 GMT 47.664597 -0.389191 28,150 59 419 -1600
2018-07-21 10:09:02 GMT 47.658504 -0.404241 28,475 59 422 -2304
2018-07-21 10:08:59 GMT 47.653709 -0.416142 28,900 59 427 -2432
2018-07-21 10:08:51 GMT 47.644821 -0.438217 29,150 59 423 -2368
2018-07-21 10:08:48 GMT 47.643330 -0.441988 29,150 59 427 -2432
2018-07-21 10:08:41 GMT 47.637508 -0.456426 29,150 59 425 -2304
2018-07-21 10:08:38 GMT 47.633972 -0.465202 29,325 59 426 -2368
2018-07-21 10:08:35 GMT 47.629456 -0.476426 29,500 59 430 -2496
2018-07-21 10:08:30 GMT 47.626431 -0.483962 30,000 58 432 -2560
2018-07-21 10:08:26 GMT 47.620880 -0.497818 29,800 59 429 -2368
2018-07-21 10:08:18 GMT 47.612465 -0.518752 30,325 59 430 -2496
2018-07-21 10:08:15 GMT 47.610043 -0.524808 30,300 59 430 -2240
2018-07-21 10:08:09 GMT 47.604446 -0.538673 30,850 58 432 -2560
2018-07-21 10:08:05 GMT 47.600555 -0.548286 30,800 59 432 -2624
2018-07-21 10:08:02 GMT 47.596024 -0.559410 30,800 59 432 -2624
2018-07-21 10:07:59 GMT 47.594078 -0.564247 30,875 58 433 -2240
2018-07-21 10:07:55 GMT 47.590210 -0.573624 31,175 33 437 -3200
2018-07-21 10:07:51 GMT 47.585083 -0.584953 31,175 33 437 -3200
2018-07-21 10:07:48 GMT 47.582020 -0.590867 31,275 47 436 -2944
2018-07-21 10:07:44 GMT 47.577553 -0.598614 31,575 43 435 -3264
2018-07-21 10:07:41 GMT 47.572430 -0.606220 31,650 36 437 -3392
2018-07-21 10:07:37 GMT 47.566750 -0.613755 31,875 38 436 -3456
2018-07-21 10:07:32 GMT 47.558697 -0.622770 32,375 29 437 -3200
2018-07-21 10:07:26 GMT 47.547619 -0.632629 32,525 26 437 -3456
2018-07-21 10:07:23 GMT 47.542915 -0.636080 32,725 21 437 -2880
2018-07-21 10:07:20 GMT 47.535793 -0.640447 32,875 18 438 -2624
2018-07-21 10:07:12 GMT 47.521408 -0.646503 33,275 9 440 -2752
2018-07-21 10:07:09 GMT 47.513123 -0.648331 34,250 352 443 -2944
2018-07-21 10:07:02 GMT 47.499664 -0.648743 33,850 355 444 -2816
2018-07-21 10:06:57 GMT 47.490280 -0.647438 34,100 353 443 -3072
2018-07-21 10:06:51 GMT 47.478722 -0.645095 34,400 352 443 -2624
2018-07-21 10:06:47 GMT 47.470413 -0.643318 34,625 352 443 -1984
2018-07-21 10:06:43 GMT 47.462723 -0.641670 34,750 352 442 -2816
2018-07-21 10:06:40 GMT 47.454620 -0.639885 34,950 352 442 -2944
2018-07-21 10:06:37 GMT 47.451782 -0.639336 35,025 352 442 -2368
2018-07-21 10:06:32 GMT 47.439850 -0.636784 35,325 352 443 -2048
2018-07-21 10:06:29 GMT 47.432373 -0.635216 36,250 352 442 -1472
2018-07-21 10:06:26 GMT 47.428120 -0.634320 35,475 352 443 -2880
2018-07-21 10:06:22 GMT 47.419971 -0.632629 35,700 352 442 -3712
2018-07-21 10:06:19 GMT 47.411682 -0.630890 35,900 352 445 -1536
2018-07-21 10:06:15 GMT 47.405819 -0.629672 36,050 353 441 -2752
2018-07-21 10:06:11 GMT 47.395935 -0.627594 36,250 352 441 -1536
2018-07-21 10:06:06 GMT 47.388084 -0.625939 36,350 352 442 -1472
2018-07-21 10:06:02 GMT 47.378773 -0.623967 36,475 352 442 -1408
2018-07-21 10:05:56 GMT 47.360733 -0.620178 36,625 352 445 -1536
2018-07-21 10:05:50 GMT 47.355263 -0.618967 36,750 352 445 -1408
2018-07-21 10:05:47 GMT 47.349747 -0.617775 36,950 352 446 -1408
2018-07-21 10:05:42 GMT 47.338551 -0.615375 37,050 352 446 -1408
2018-07-21 10:05:38 GMT 47.331802 -0.613930 37,000 352 446 -1472
2018-07-21 10:05:33 GMT 47.319122 -0.611252 37,175 352 445 -1536
2018-07-21 10:05:30 GMT 47.315277 -0.610445 37,250 352 444 -1536
2018-07-21 10:05:27 GMT 47.308960 -0.609123 37,475 352 444 -1536
2018-07-21 10:05:24 GMT 47.302872 -0.607819 37,425 352 444 -1408
2018-07-21 10:05:20 GMT 47.292885 -0.605657 37,475 352 444 -1344
2018-07-21 10:05:16 GMT 47.287205 -0.604459 37,550 352 444 -1088
2018-07-21 10:05:11 GMT 47.275845 -0.602065 37,650 352 444 -1024
2018-07-21 10:05:06 GMT 47.263824 -0.599579 37,775 352 445 -1024
2018-07-21 10:05:03 GMT 47.258926 -0.598549 37,775 352 445 -1024
2018-07-21 10:04:58 GMT 47.250568 -0.596783 37,850 352 445 -1024
2018-07-21 10:04:54 GMT 47.242050 -0.594952 37,925 352 445 -704
2018-07-21 10:04:48 GMT 47.228806 -0.592163 37,975 352 446 0
2018-07-21 10:04:43 GMT 47.219421 -0.590172 38,000 352 446 0
2018-07-21 10:04:40 GMT 47.213287 -0.588867 38,000 352 446 0
2018-07-21 10:04:37 GMT 47.207367 -0.587628 38,000 352 446 0
2018-07-21 10:04:34 GMT 47.198593 -0.585777 38,000 352 446 0
2018-07-21 10:04:27 GMT 47.184311 -0.582756 37,975 352 446 0
2018-07-21 10:04:24 GMT 47.181252 -0.582135 37,975 352 446 0
2018-07-21 10:04:19 GMT 47.165543 -0.578842 38,000 352 446 0
2018-07-21 10:04:15 GMT 47.161236 -0.577909 38,000 352 448 0
2018-07-21 10:04:11 GMT 47.154510 -0.576508 38,000 352 447 0
2018-07-21 10:04:04 GMT 47.139168 -0.573261 38,000 352 447 0
2018-07-21 10:04:00 GMT 47.131393 -0.571571 38,000 352 447 0
2018-07-21 10:03:57 GMT 47.125443 -0.570328 38,000 352 447 0
2018-07-21 10:03:53 GMT 47.118118 -0.568817 38,000 352 447 0
2018-07-21 10:03:48 GMT 47.106441 -0.566359 38,000 352 447 0
2018-07-21 10:03:42 GMT 47.094151 -0.563754 38,000 352 447 0
2018-07-21 10:03:37 GMT 47.084518 -0.561745 38,000 352 448 0
2018-07-21 10:03:32 GMT 47.073074 -0.559410 38,000 352 448 0
2018-07-21 10:03:27 GMT 47.064686 -0.557627 37,975 352 448 0
2018-07-21 10:03:21 GMT 47.051331 -0.554878 38,000 352 448 0
2018-07-21 10:03:15 GMT 47.040058 -0.552556 37,975 353 449 0
2018-07-21 10:03:12 GMT 47.029999 -0.550484 38,000 353 449 0
2018-07-21 10:03:07 GMT 47.022415 -0.548964 38,000 353 449 0
2018-07-21 10:03:04 GMT 47.016861 -0.547806 38,000 353 449 0
2018-07-21 10:02:59 GMT 47.007195 -0.545866 38,000 353 449 0
2018-07-21 10:02:56 GMT 47.000015 -0.544441 38,000 352 449 0
2018-07-21 10:02:48 GMT 46.984196 -0.541147 38,000 352 449 0
2018-07-21 10:02:45 GMT 46.977814 -0.539841 38,000 352 449 0
2018-07-21 10:02:42 GMT 46.971680 -0.538536 38,000 352 449 0
2018-07-21 10:02:39 GMT 46.963028 -0.536751 37,975 352 449 0
2018-07-21 10:02:35 GMT 46.956024 -0.535309 37,975 352 449 0
2018-07-21 10:02:30 GMT 46.946770 -0.533400 37,975 352 450 0
2018-07-21 10:02:24 GMT 46.933174 -0.530583 38,000 352 450 0
2018-07-21 10:02:21 GMT 46.928055 -0.529541 38,000 352 450 0
2018-07-21 10:02:14 GMT 46.913223 -0.526451 38,000 352 450 0
2018-07-21 10:02:11 GMT 46.904778 -0.524668 38,000 352 450 0
2018-07-21 10:02:06 GMT 46.894489 -0.522555 37,975 352 450 0
2018-07-21 10:02:03 GMT 46.890152 -0.521645 37,975 352 450 0
2018-07-21 10:02:00 GMT 46.886032 -0.520821 37,975 352 450 0
2018-07-21 10:01:54 GMT 46.871979 -0.517868 37,975 352 451 0
2018-07-21 10:01:50 GMT 46.863739 -0.516156 37,975 352 451 0
2018-07-21 10:01:40 GMT 46.841232 -0.511482 38,000 352 451 0
2018-07-21 10:01:36 GMT 46.834854 -0.510194 37,975 352 452 0
2018-07-21 10:01:30 GMT 46.822243 -0.507568 37,975 352 452 0
2018-07-21 10:01:27 GMT 46.815811 -0.506242 37,975 352 452 0
2018-07-21 10:01:20 GMT 46.802994 -0.503629 37,975 353 453 0
2018-07-21 10:01:17 GMT 46.795532 -0.502089 38,000 353 453 0
2018-07-21 10:01:11 GMT 46.782906 -0.499535 38,000 353 453 0
2018-07-21 10:01:08 GMT 46.777084 -0.498367 38,000 352 454 0
2018-07-21 10:01:05 GMT 46.770630 -0.497064 38,000 352 454 0
2018-07-21 10:01:02 GMT 46.762756 -0.495457 38,000 353 454 0
2018-07-21 10:00:59 GMT 46.759415 -0.494720 38,000 352 454 0
2018-07-21 10:00:56 GMT 46.753189 -0.493447 38,000 352 454 0
2018-07-21 10:00:53 GMT 46.746361 -0.492050 38,000 352 454 0
2018-07-21 10:00:48 GMT 46.736572 -0.490030 38,000 352 454 0
2018-07-21 10:00:44 GMT 46.728065 -0.488274 38,000 352 454 0
2018-07-21 10:00:38 GMT 46.714142 -0.485341 38,000 352 454 0
2018-07-21 10:00:35 GMT 46.708981 -0.484222 38,000 352 454 0
2018-07-21 10:00:32 GMT 46.703751 -0.483130 38,000 352 454 0
2018-07-21 10:00:26 GMT 46.690685 -0.480377 38,000 352 454 0
2018-07-21 10:00:23 GMT 46.683189 -0.478867 38,000 352 454 0
2018-07-21 10:00:14 GMT 46.665779 -0.475227 38,000 352 454 0
2018-07-21 10:00:11 GMT 46.659542 -0.473923 38,000 352 454 0
2018-07-21 10:00:05 GMT 46.646645 -0.471245 38,000 352 454 0
2018-07-21 10:00:02 GMT 46.639988 -0.469872 38,000 352 453 0
2018-07-21 09:59:52 GMT 46.620712 -0.465847 38,000 353 453 0
2018-07-21 09:59:45 GMT 46.605541 -0.462730 38,000 352 453 0
2018-07-21 09:59:42 GMT 46.598282 -0.461225 38,000 353 453 0
2018-07-21 09:59:37 GMT 46.588921 -0.459366 38,000 353 454 0
2018-07-21 09:59:33 GMT 46.579605 -0.457473 38,000 353 454 0
2018-07-21 09:59:29 GMT 46.572720 -0.456070 38,000 353 454 0
2018-07-21 09:59:22 GMT 46.556938 -0.452843 38,000 353 454 0
2018-07-21 09:59:17 GMT 46.547195 -0.450908 38,000 353 454 0
2018-07-21 09:59:10 GMT 46.532036 -0.447830 38,000 353 453 0
2018-07-21 09:59:02 GMT 46.515244 -0.444477 38,000 353 453 0
2018-07-21 09:58:59 GMT 46.510254 -0.443406 38,000 353 453 0
2018-07-21 09:58:56 GMT 46.503822 -0.442131 38,000 353 453 0
2018-07-21 09:58:52 GMT 46.492401 -0.439788 38,000 353 453 0
2018-07-21 09:58:46 GMT 46.481434 -0.437531 38,000 353 453 0
2018-07-21 09:58:41 GMT 46.471252 -0.435501 38,000 353 453 0
2018-07-21 09:58:35 GMT 46.459213 -0.433022 38,000 353 453 0
2018-07-21 09:58:30 GMT 46.448822 -0.430878 38,000 353 453 0
2018-07-21 09:58:27 GMT 46.442421 -0.429634 38,000 353 453 0
2018-07-21 09:58:22 GMT 46.432041 -0.427505 37,975 353 453 0
2018-07-21 09:58:19 GMT 46.426437 -0.426323 38,000 353 453 0
2018-07-21 09:58:14 GMT 46.414581 -0.423935 37,975 353 453 0
2018-07-21 09:58:09 GMT 46.403595 -0.421701 37,975 352 453 0
2018-07-21 09:58:04 GMT 46.395496 -0.420021 38,000 352 453 0
2018-07-21 09:57:57 GMT 46.381809 -0.417274 38,000 353 453 0
2018-07-21 09:57:54 GMT 46.374363 -0.415695 38,000 352 453 0
2018-07-21 09:57:51 GMT 46.368961 -0.414597 38,000 352 453 0
2018-07-21 09:57:46 GMT 46.358826 -0.412523 38,000 352 453 0
2018-07-21 09:57:43 GMT 46.352810 -0.411301 38,000 353 453 0
2018-07-21 09:57:39 GMT 46.341797 -0.409107 38,000 353 453 0
2018-07-21 09:57:36 GMT 46.335815 -0.407867 38,000 353 453 0
2018-07-21 09:57:32 GMT 46.328522 -0.406360 38,000 353 453 0
2018-07-21 09:57:28 GMT 46.321472 -0.404953 37,975 353 453 0
2018-07-21 09:57:25 GMT 46.314011 -0.403413 37,975 353 453 0
2018-07-21 09:57:22 GMT 46.308025 -0.402237 37,975 353 453 0
2018-07-21 09:57:19 GMT 46.302017 -0.401001 37,975 353 453 0
2018-07-21 09:57:14 GMT 46.290985 -0.398804 37,975 353 453 0
2018-07-21 09:57:11 GMT 46.286427 -0.397842 37,975 353 453 0
2018-07-21 09:57:08 GMT 46.278557 -0.396263 37,975 353 453 0
2018-07-21 09:57:03 GMT 46.269432 -0.394409 38,000 353 453 0
2018-07-21 09:56:59 GMT 46.260910 -0.392694 38,000 353 453 0
2018-07-21 09:56:53 GMT 46.247459 -0.389946 38,000 353 453 0
2018-07-21 09:56:47 GMT 46.235229 -0.387469 38,000 353 453 0
2018-07-21 09:56:43 GMT 46.226074 -0.385660 38,000 353 453 0
2018-07-21 09:56:36 GMT 46.209915 -0.382378 37,975 353 453 0
2018-07-21 09:56:32 GMT 46.203888 -0.381157 37,975 353 453 0
2018-07-21 09:56:28 GMT 46.195602 -0.379440 37,975 353 453 0
2018-07-21 09:56:21 GMT 46.180893 -0.376483 38,000 353 453 0
2018-07-21 09:56:15 GMT 46.168442 -0.374004 38,000 353 453 0
2018-07-21 09:56:11 GMT 46.159286 -0.372195 38,000 353 453 0
2018-07-21 09:56:07 GMT 46.151825 -0.370655 38,000 353 453 0
2018-07-21 09:56:02 GMT 46.139599 -0.368179 38,000 353 453 0
2018-07-21 09:55:59 GMT 46.136490 -0.367573 38,000 353 453 0
2018-07-21 09:55:53 GMT 46.124702 -0.365158 38,000 353 453 0
2018-07-21 09:55:49 GMT 46.114929 -0.363219 38,000 353 453 0
2018-07-21 09:55:43 GMT 46.102112 -0.360606 38,000 352 453 0
2018-07-21 09:55:39 GMT 46.091721 -0.358462 37,975 352 453 0
2018-07-21 09:55:34 GMT 46.085320 -0.357193 38,000 352 453 0
2018-07-21 09:55:31 GMT 46.078243 -0.355751 38,000 352 453 0
2018-07-21 09:55:27 GMT 46.069748 -0.353974 37,975 352 452 0
2018-07-21 09:55:23 GMT 46.062698 -0.352567 38,000 352 453 0
2018-07-21 09:55:16 GMT 46.046951 -0.349352 37,975 352 452 0
2018-07-21 09:55:12 GMT 46.039078 -0.347744 38,000 352 452 0
2018-07-21 09:55:07 GMT 46.027084 -0.345332 37,975 352 452 0
2018-07-21 09:55:00 GMT 46.012985 -0.342452 38,000 352 452 0
2018-07-21 09:54:56 GMT 46.005760 -0.340988 37,975 352 452 0
2018-07-21 09:54:53 GMT 45.999756 -0.339772 37,975 352 453 0
2018-07-21 09:54:49 GMT 45.988998 -0.337696 37,975 350 452 0
2018-07-21 09:54:41 GMT 45.973663 -0.334614 38,000 351 453 0
2018-07-21 09:54:38 GMT 45.968307 -0.333341 38,000 350 452 0
2018-07-21 09:54:34 GMT 45.959244 -0.330997 38,000 346 451 0
2018-07-21 09:54:30 GMT 45.951294 -0.328560 38,000 347 451 0
2018-07-21 09:54:24 GMT 45.938309 -0.324097 38,000 343 451 -64
2018-07-21 09:54:18 GMT 45.926296 -0.319221 38,000 343 451 -64
2018-07-21 09:54:12 GMT 45.916580 -0.314718 38,000 336 449 0
2018-07-21 09:54:07 GMT 45.906979 -0.309883 38,000 336 448 0
2018-07-21 09:54:00 GMT 45.892090 -0.301253 38,000 336 449 0
2018-07-21 09:53:57 GMT 45.887924 -0.298641 38,000 336 450 0
2018-07-21 09:53:51 GMT 45.875275 -0.290245 38,000 336 450 0
2018-07-21 09:53:47 GMT 45.867779 -0.285164 38,000 336 450 0
2018-07-21 09:53:40 GMT 45.855148 -0.276802 38,000 336 450 0
2018-07-21 09:53:36 GMT 45.846497 -0.271041 38,000 336 449 0
2018-07-21 09:53:31 GMT 45.836700 -0.264543 38,000 336 448 0
2018-07-21 09:53:25 GMT 45.826172 -0.257509 38,000 336 448 0
2018-07-21 09:53:20 GMT 45.816742 -0.251279 38,000 336 448 0
2018-07-21 09:53:13 GMT 45.803772 -0.242661 38,000 336 448 0
2018-07-21 09:53:08 GMT 45.794540 -0.236541 38,000 336 448 0
2018-07-21 09:53:02 GMT 45.783279 -0.229105 38,000 336 448 0
2018-07-21 09:52:58 GMT 45.775188 -0.223709 37,975 336 448 0
2018-07-21 09:52:53 GMT 45.765610 -0.217382 38,000 336 448 0
2018-07-21 09:52:50 GMT 45.761642 -0.214783 38,000 336 448 0
2018-07-21 09:52:47 GMT 45.755634 -0.210800 38,000 336 448 0
2018-07-21 09:52:41 GMT 45.743454 -0.202778 38,000 336 448 0
2018-07-21 09:52:37 GMT 45.735340 -0.197411 38,000 336 448 0
2018-07-21 09:52:30 GMT 45.723129 -0.189380 38,000 336 447 0
2018-07-21 09:52:27 GMT 45.717133 -0.185428 38,000 336 447 0
2018-07-21 09:52:19 GMT 45.701752 -0.175312 38,000 336 446 0
2018-07-21 09:52:15 GMT 45.694794 -0.170700 38,000 336 446 0
2018-07-21 09:52:09 GMT 45.683395 -0.163187 38,000 336 446 0
2018-07-21 09:52:05 GMT 45.674171 -0.157173 38,000 336 446 0
2018-07-21 09:51:58 GMT 45.663895 -0.150392 38,000 336 446 0
2018-07-21 09:51:54 GMT 45.656200 -0.145363 38,000 336 446 0
2018-07-21 09:51:49 GMT 45.646271 -0.138803 38,000 336 446 0
2018-07-21 09:51:46 GMT 45.640465 -0.134995 38,000 336 446 0
2018-07-21 09:51:41 GMT 45.632225 -0.129570 38,000 336 446 0
2018-07-21 09:51:36 GMT 45.622868 -0.123459 37,975 336 446 0
2018-07-21 09:51:33 GMT 45.614258 -0.117760 37,975 336 446 0
2018-07-21 09:51:26 GMT 45.601921 -0.109657 37,975 336 446 0
2018-07-21 09:51:23 GMT 45.596878 -0.106313 37,975 336 446 0
2018-07-21 09:51:16 GMT 45.584324 -0.098122 37,975 336 446 0
2018-07-21 09:51:11 GMT 45.576279 -0.092781 37,975 336 446 0
2018-07-21 09:51:04 GMT 45.561310 -0.082933 38,000 336 445 0
2018-07-21 09:51:00 GMT 45.553692 -0.077866 38,000 336 445 0
2018-07-21 09:50:54 GMT 45.543964 -0.071478 38,000 336 445 0
2018-07-21 09:50:51 GMT 45.536514 -0.066521 38,000 336 445 0
2018-07-21 09:50:43 GMT 45.523434 -0.057879 37,975 336 445 0
2018-07-21 09:50:39 GMT 45.515984 -0.052989 37,975 336 445 0
2018-07-21 09:50:35 GMT 45.506424 -0.046692 38,000 336 445 0
2018-07-21 09:50:32 GMT 45.503448 -0.044730 38,000 336 445 0
2018-07-21 09:50:27 GMT 45.490356 -0.036229 38,000 336 445 0
2018-07-21 09:50:21 GMT 45.482327 -0.030949 38,000 336 445 0
2018-07-21 09:50:16 GMT 45.468876 -0.022174 38,000 336 444 0
2018-07-21 09:50:13 GMT 45.464405 -0.019226 38,000 336 444 0
2018-07-21 09:50:10 GMT 45.461380 -0.017283 38,000 336 444 0
2018-07-21 09:50:03 GMT 45.447372 -0.008174 38,000 336 444 0
2018-07-21 09:49:59 GMT 45.441593 -0.004354 38,000 336 444 0
2018-07-21 09:49:52 GMT 45.427231 0.004970 38,000 336 444 0
2018-07-21 09:49:48 GMT 45.420135 0.009613 38,000 336 446 0
2018-07-21 09:49:41 GMT 45.407410 0.017918 38,000 336 445 0
2018-07-21 09:49:38 GMT 45.401825 0.021515 38,000 336 444 0
2018-07-21 09:49:35 GMT 45.394901 0.026059 38,000 336 445 0
2018-07-21 09:49:31 GMT 45.386662 0.031418 38,000 336 445 0
2018-07-21 09:49:27 GMT 45.381077 0.035036 38,000 336 445 0
2018-07-21 09:49:24 GMT 45.374542 0.039302 38,000 336 445 0
2018-07-21 09:49:19 GMT 45.366669 0.044468 38,000 336 445 0
2018-07-21 09:49:13 GMT 45.355659 0.051649 38,000 336 444 0
2018-07-21 09:49:09 GMT 45.347420 0.057008 38,000 336 444 0
2018-07-21 09:49:05 GMT 45.339226 0.062368 38,000 336 444 0
2018-07-21 09:49:02 GMT 45.333801 0.065918 38,000 336 444 0
2018-07-21 09:48:58 GMT 45.327637 0.069937 38,000 336 444 0
2018-07-21 09:48:53 GMT 45.318279 0.076033 38,000 336 446 0
2018-07-21 09:48:48 GMT 45.307983 0.082724 37,975 336 446 0
2018-07-21 09:48:42 GMT 45.296211 0.090436 38,000 336 446 0
2018-07-21 09:48:38 GMT 45.287430 0.096196 38,000 336 446 0
2018-07-21 09:48:33 GMT 45.279602 0.101297 38,000 336 446 0
2018-07-21 09:48:30 GMT 45.273819 0.105107 38,000 336 446 0
2018-07-21 09:48:26 GMT 45.267815 0.108992 38,000 336 446 0
2018-07-21 09:48:20 GMT 45.255661 0.116991 38,000 336 446 0
2018-07-21 09:48:15 GMT 45.246323 0.123073 38,000 336 446 0
2018-07-21 09:48:09 GMT 45.233784 0.131300 38,000 336 446 0
2018-07-21 09:48:05 GMT 45.227779 0.135185 38,000 336 446 0
2018-07-21 09:47:59 GMT 45.217304 0.142018 37,975 336 446 0
2018-07-21 09:47:55 GMT 45.208145 0.147988 37,975 336 446 0
2018-07-21 09:47:48 GMT 45.194641 0.156751 37,975 336 446 0
2018-07-21 09:47:44 GMT 45.187683 0.161264 37,975 336 446 0
2018-07-21 09:47:34 GMT 45.168148 0.173906 37,975 336 446 0
2018-07-21 09:47:30 GMT 45.161224 0.178397 37,975 336 447 0
2018-07-21 09:47:27 GMT 45.153900 0.183150 38,000 336 447 0
2018-07-21 09:47:23 GMT 45.148453 0.186702 37,975 336 447 0
2018-07-21 09:47:20 GMT 45.142410 0.190560 38,000 336 447 0
2018-07-21 09:47:15 GMT 45.134724 0.195543 38,000 336 447 0
2018-07-21 09:47:12 GMT 45.127926 0.199898 38,000 336 447 0
2018-07-21 09:47:05 GMT 45.114944 0.208282 37,975 336 447 0
2018-07-21 09:47:00 GMT 45.104416 0.215018 37,975 336 448 0
2018-07-21 09:46:54 GMT 45.094620 0.221361 37,975 336 450 0
2018-07-21 09:46:50 GMT 45.087845 0.225677 37,975 336 448 0
2018-07-21 09:46:43 GMT 45.073692 0.234799 37,975 336 448 0
2018-07-21 09:46:39 GMT 45.066151 0.239690 38,000 336 448 0
2018-07-21 09:46:33 GMT 45.055435 0.246538 38,000 336 449 0
2018-07-21 09:46:30 GMT 45.047668 0.251547 37,975 336 449 0
2018-07-21 09:46:22 GMT 45.034653 0.259879 38,000 336 450 0
2018-07-21 09:46:18 GMT 45.026909 0.264811 38,000 336 449 0
2018-07-21 09:46:13 GMT 45.014648 0.272696 38,000 336 448 0
2018-07-21 09:46:08 GMT 45.006889 0.277673 38,000 336 449 0
2018-07-21 09:45:58 GMT 44.987289 0.290267 38,000 336 449 0
2018-07-21 09:45:53 GMT 44.978584 0.295827 38,000 336 449 0
2018-07-21 09:45:50 GMT 44.972954 0.299511 38,000 336 450 0
2018-07-21 09:45:47 GMT 44.967274 0.303129 38,000 336 449 0
2018-07-21 09:45:36 GMT 44.946304 0.316576 38,000 336 449 0
2018-07-21 09:45:31 GMT 44.938553 0.321551 38,000 336 449 0
2018-07-21 09:45:24 GMT 44.924583 0.330461 38,000 336 449 0
2018-07-21 09:45:21 GMT 44.917969 0.334691 38,000 336 449 0
2018-07-21 09:45:13 GMT 44.903595 0.343911 38,000 336 449 0
2018-07-21 09:45:10 GMT 44.895863 0.348883 38,000 336 449 0
2018-07-21 09:45:06 GMT 44.890366 0.352347 38,000 336 449 0
2018-07-21 09:45:03 GMT 44.883179 0.356925 38,000 336 449 0
2018-07-21 09:44:53 GMT 44.866150 0.367780 38,000 336 449 0
2018-07-21 09:44:42 GMT 44.845322 0.380990 38,000 336 449 0
2018-07-21 09:44:37 GMT 44.835846 0.386941 38,000 336 449 0
2018-07-21 09:44:33 GMT 44.826546 0.392761 38,000 336 448 0
2018-07-21 09:44:28 GMT 44.817471 0.398455 38,000 337 450 0
2018-07-21 09:44:20 GMT 44.803783 0.407030 37,975 337 449 0
2018-07-21 09:44:14 GMT 44.791031 0.414930 37,975 337 450 0
2018-07-21 09:44:09 GMT 44.782459 0.420227 37,975 337 450 0
2018-07-21 09:44:06 GMT 44.774689 0.425066 37,975 337 450 0
2018-07-21 09:44:00 GMT 44.766121 0.430343 37,975 337 450 0
2018-07-21 09:43:55 GMT 44.754501 0.437491 38,000 337 450 0
2018-07-21 09:43:48 GMT 44.743057 0.444554 38,000 334 449 0
2018-07-21 09:43:44 GMT 44.733349 0.450506 38,000 334 449 0
2018-07-21 09:43:38 GMT 44.721359 0.457960 38,000 337 450 0
2018-07-21 09:43:34 GMT 44.713028 0.463126 38,000 336 449 0
2018-07-21 09:43:26 GMT 44.699753 0.471497 38,000 336 450 0
2018-07-21 09:43:18 GMT 44.684555 0.481110 38,000 336 450 0
2018-07-21 09:43:13 GMT 44.676044 0.486547 38,000 336 450 0
2018-07-21 09:43:06 GMT 44.663567 0.494653 38,000 335 450 0
2018-07-21 09:43:02 GMT 44.654957 0.500414 38,000 334 449 0
2018-07-21 09:42:55 GMT 44.642292 0.509190 38,000 334 449 0
2018-07-21 09:42:46 GMT 44.623901 0.522047 38,000 334 449 0
2018-07-21 09:42:42 GMT 44.617584 0.526494 38,000 334 449 0
2018-07-21 09:42:34 GMT 44.603851 0.536107 38,000 334 449 0
2018-07-21 09:42:22 GMT 44.580982 0.552063 38,000 334 449 0
2018-07-21 09:42:11 GMT 44.561508 0.565731 38,000 334 448 0
2018-07-21 09:42:02 GMT 44.541321 0.579864 38,000 334 449 0
2018-07-21 09:41:59 GMT 44.537796 0.582341 38,000 334 449 0
2018-07-21 09:41:52 GMT 44.523865 0.591989 38,000 334 448 0
2018-07-21 09:41:41 GMT 44.501404 0.607518 38,000 334 448 0
2018-07-21 09:41:37 GMT 44.497517 0.610210 38,000 334 448 0
2018-07-21 09:41:34 GMT 44.492302 0.613828 38,000 334 448 0
2018-07-21 09:41:29 GMT 44.480057 0.622268 38,000 334 448 0
2018-07-21 09:41:19 GMT 44.464645 0.632891 38,000 334 446 0
2018-07-21 09:41:15 GMT 44.454666 0.639823 38,000 334 447 0
2018-07-21 09:41:10 GMT 44.445740 0.645905 38,000 334 447 0
2018-07-21 09:41:05 GMT 44.438534 0.650873 37,975 334 447 0
2018-07-21 09:40:59 GMT 44.426102 0.659441 37,975 334 446 0
2018-07-21 09:40:55 GMT 44.416809 0.665785 37,975 334 446 0
2018-07-21 09:40:48 GMT 44.403992 0.674520 38,000 334 446 0
2018-07-21 09:40:44 GMT 44.399940 0.677334 38,000 334 446 0
2018-07-21 09:40:34 GMT 44.380463 0.690635 38,000 334 446 0
2018-07-21 09:40:24 GMT 44.360504 0.704302 38,000 334 445 0
2018-07-21 09:40:12 GMT 44.339767 0.718493 38,000 334 445 0
2018-07-21 09:40:04 GMT 44.325394 0.728302 38,000 334 445 0
2018-07-21 09:40:00 GMT 44.318195 0.733270 38,000 334 445 0
2018-07-21 09:39:57 GMT 44.312656 0.737022 38,000 334 445 0
2018-07-21 09:39:50 GMT 44.299896 0.745697 38,000 334 444 0
2018-07-21 09:39:47 GMT 44.294174 0.749616 38,000 334 444 0
2018-07-21 09:39:40 GMT 44.279251 0.759757 38,000 334 444 0
2018-07-21 09:39:33 GMT 44.267441 0.767800 38,000 335 443 0
2018-07-21 09:39:30 GMT 44.262268 0.771266 38,000 335 443 0
2018-07-21 09:39:25 GMT 44.250824 0.779048 38,000 335 443 0
2018-07-21 09:39:17 GMT 44.237595 0.788007 38,000 335 443 0
2018-07-21 09:39:12 GMT 44.228348 0.794220 38,000 335 443 0
2018-07-21 09:39:08 GMT 44.221344 0.798994 38,000 335 443 0
2018-07-21 09:39:03 GMT 44.210678 0.806122 38,000 335 442 0
2018-07-21 09:38:57 GMT 44.201431 0.812269 38,000 335 443 0
2018-07-21 09:38:46 GMT 44.180374 0.826210 37,975 335 443 0
2018-07-21 09:38:37 GMT 44.164444 0.836686 37,975 335 443 0
2018-07-21 09:38:33 GMT 44.156662 0.841795 37,975 335 442 0
2018-07-21 09:38:24 GMT 44.141098 0.851824 38,000 336 443 0
2018-07-21 09:38:15 GMT 44.123566 0.862938 38,000 336 442 0
2018-07-21 09:38:12 GMT 44.117836 0.866547 38,000 336 442 0
2018-07-21 09:38:04 GMT 44.102566 0.876225 38,000 336 442 0
2018-07-21 09:38:00 GMT 44.095276 0.880759 38,000 336 442 0
2018-07-21 09:37:53 GMT 44.082455 0.888912 37,975 336 443 0
2018-07-21 09:37:50 GMT 44.077244 0.892181 37,975 336 443 0
2018-07-21 09:37:45 GMT 44.066860 0.898786 37,975 336 442 0
2018-07-21 09:37:40 GMT 44.058666 0.903952 37,975 336 442 0
2018-07-21 09:37:35 GMT 44.046795 0.911538 38,000 336 442 0
2018-07-21 09:37:28 GMT 44.035995 0.918405 37,975 336 442 0
2018-07-21 09:37:24 GMT 44.028221 0.923309 38,000 336 442 0
2018-07-21 09:37:19 GMT 44.020027 0.928541 37,975 336 442 0
2018-07-21 09:37:11 GMT 44.002571 0.939593 37,975 336 442 0
2018-07-21 09:37:07 GMT 43.997543 0.942780 38,000 336 442 0
2018-07-21 09:37:03 GMT 43.989910 0.947571 37,975 336 442 0
2018-07-21 09:36:59 GMT 43.982300 0.952425 37,975 336 443 0
2018-07-21 09:36:56 GMT 43.977665 0.955353 37,975 336 442 0
2018-07-21 09:36:52 GMT 43.969666 0.960409 38,000 336 442 0
2018-07-21 09:36:47 GMT 43.959789 0.966601 38,000 336 442 0
2018-07-21 09:36:42 GMT 43.950481 0.972486 38,000 336 442 0
2018-07-21 09:36:38 GMT 43.942841 0.977272 38,000 336 442 0
2018-07-21 09:36:34 GMT 43.935581 0.981838 38,000 336 442 0
2018-07-21 09:36:31 GMT 43.929996 0.985369 38,000 336 442 0
2018-07-21 09:36:28 GMT 43.924038 0.989097 38,000 336 442 0
2018-07-21 09:36:22 GMT 43.910797 0.997393 38,000 336 442 0
2018-07-21 09:36:18 GMT 43.903557 1.001914 38,000 336 442 64
2018-07-21 09:36:11 GMT 43.892166 1.009081 38,000 336 443 0
2018-07-21 09:36:06 GMT 43.884338 1.013936 37,975 336 443 0
2018-07-21 09:36:03 GMT 43.877811 1.018001 37,975 336 443 0
2018-07-21 09:36:00 GMT 43.872757 1.021154 37,975 336 443 0
2018-07-21 09:35:56 GMT 43.865105 1.025914 38,000 336 443 0
2018-07-21 09:35:50 GMT 43.854126 1.032779 38,000 336 442 0
2018-07-21 09:35:46 GMT 43.844421 1.038911 38,000 336 443 0
2018-07-21 09:35:39 GMT 43.833618 1.045681 38,000 336 443 0
2018-07-21 09:35:34 GMT 43.824280 1.051494 38,000 336 443 0
2018-07-21 09:35:30 GMT 43.814407 1.057696 37,975 336 443 0
2018-07-21 09:35:22 GMT 43.801163 1.065993 37,975 336 443 0
2018-07-21 09:35:19 GMT 43.795166 1.069698 37,975 336 443 0
2018-07-21 09:35:11 GMT 43.781754 1.078129 37,975 336 443 0
2018-07-21 09:35:07 GMT 43.774094 1.082873 37,975 336 443 0
2018-07-21 09:35:02 GMT 43.764542 1.088860 37,975 336 443 0
2018-07-21 09:34:56 GMT 43.753693 1.095567 37,975 336 443 0
2018-07-21 09:34:51 GMT 43.744160 1.101510 38,000 336 443 0
2018-07-21 09:34:46 GMT 43.735222 1.107069 38,000 336 444 0
2018-07-21 09:34:42 GMT 43.724533 1.113707 37,975 336 444 0
2018-07-21 09:34:38 GMT 43.718742 1.117336 37,975 336 444 0
2018-07-21 09:34:35 GMT 43.713318 1.120669 38,000 336 443 0
2018-07-21 09:34:31 GMT 43.705662 1.125445 38,000 336 443 0
2018-07-21 09:34:25 GMT 43.694443 1.132442 38,000 336 443 0
2018-07-21 09:34:20 GMT 43.685303 1.138171 38,000 336 443 0
2018-07-21 09:34:14 GMT 43.674286 1.144998 38,000 336 444 0
2018-07-21 09:34:07 GMT 43.659119 1.154395 38,000 336 444 -64
2018-07-21 09:34:03 GMT 43.654266 1.157461 38,000 336 443 0
2018-07-21 09:33:55 GMT 43.638565 1.167170 38,000 336 443 0
2018-07-21 09:33:52 GMT 43.633877 1.170109 38,000 336 443 0
2018-07-21 09:33:49 GMT 43.625519 1.175345 38,000 336 443 0
2018-07-21 09:33:45 GMT 43.617863 1.180115 38,000 336 443 0
2018-07-21 09:33:42 GMT 43.614670 1.182052 38,000 336 442 0
2018-07-21 09:33:31 GMT 43.595100 1.194305 38,000 336 442 0
2018-07-21 09:33:24 GMT 43.581116 1.203003 38,000 336 442 0
2018-07-21 09:33:20 GMT 43.574020 1.207474 38,000 336 442 0
2018-07-21 09:33:10 GMT 43.555023 1.219291 37,975 336 443 0
2018-07-21 09:33:03 GMT 43.541199 1.227914 38,000 336 443 0
2018-07-21 09:32:59 GMT 43.535614 1.231363 38,000 336 443 0
2018-07-21 09:32:53 GMT 43.522758 1.239362 38,000 336 443 0
2018-07-21 09:32:49 GMT 43.515636 1.243809 38,000 336 443 0
2018-07-21 09:32:42 GMT 43.502747 1.251739 37,975 336 443 0
2018-07-21 09:32:38 GMT 43.495285 1.256338 37,975 336 443 0
2018-07-21 09:32:33 GMT 43.484070 1.263236 38,000 336 443 0
2018-07-21 09:32:27 GMT 43.475647 1.268398 38,000 336 443 0
2018-07-21 09:32:23 GMT 43.467033 1.273695 38,000 336 443 0
2018-07-21 09:32:20 GMT 43.459351 1.278374 38,000 337 443 0
2018-07-21 09:32:15 GMT 43.453354 1.282015 38,000 337 443 0
2018-07-21 09:32:11 GMT 43.443806 1.287885 38,000 337 443 0
2018-07-21 09:32:06 GMT 43.436554 1.292299 38,000 337 443 0
2018-07-21 09:32:01 GMT 43.425137 1.299264 38,000 337 443 0
2018-07-21 09:31:55 GMT 43.414490 1.305776 38,000 336 442 0
2018-07-21 09:31:50 GMT 43.405106 1.311525 38,000 336 442 0
2018-07-21 09:31:45 GMT 43.395767 1.317274 37,975 336 443 0
2018-07-21 09:31:40 GMT 43.384232 1.324364 37,975 336 442 0
2018-07-21 09:31:37 GMT 43.380478 1.326663 37,975 336 442 0
2018-07-21 09:31:34 GMT 43.376583 1.329084 38,000 336 442 0
2018-07-21 09:31:29 GMT 43.364090 1.336883 38,000 336 442 0
2018-07-21 09:31:23 GMT 43.355309 1.342294 38,000 337 443 0
2018-07-21 09:31:20 GMT 43.347443 1.346937 37,975 339 444 0
2018-07-21 09:31:17 GMT 43.343811 1.349019 37,975 339 444 0
2018-07-21 09:31:11 GMT 43.331707 1.355373 37,975 341 447 0
2018-07-21 09:31:08 GMT 43.326633 1.357858 37,975 342 447 0
2018-07-21 09:31:02 GMT 43.315018 1.363007 37,975 344 448 0
2018-07-21 09:30:57 GMT 43.305267 1.366948 38,000 345 450 0
2018-07-21 09:30:49 GMT 43.288010 1.372780 38,000 349 454 0
2018-07-21 09:30:46 GMT 43.283112 1.374185 38,000 350 455 0
2018-07-21 09:30:41 GMT 43.271896 1.376996 37,975 352 457 0
2018-07-21 09:30:37 GMT 43.264389 1.378529 37,975 353 458 0
2018-07-21 09:30:34 GMT 43.255779 1.379961 37,975 354 459 0
2018-07-21 09:30:27 GMT 43.242920 1.382042 37,975 354 459 0
2018-07-21 09:30:23 GMT 43.234276 1.383427 37,975 354 459 -64
2018-07-21 09:30:20 GMT 43.226852 1.384661 38,000 354 459 0
2018-07-21 09:30:16 GMT 43.219711 1.385810 38,000 354 459 0
2018-07-21 09:30:13 GMT 43.213806 1.386768 38,000 354 460 0
2018-07-21 09:30:07 GMT 43.197964 1.389313 38,000 354 460 0
2018-07-21 09:30:02 GMT 43.190376 1.390490 38,000 354 460 0
2018-07-21 09:29:55 GMT 43.175812 1.392836 38,000 354 460 0
2018-07-21 09:29:52 GMT 43.167984 1.394087 38,000 354 460 0
2018-07-21 09:29:45 GMT 43.154484 1.396310 38,000 354 460 0
2018-07-21 09:29:41 GMT 43.145828 1.397691 38,000 354 460 0
2018-07-21 09:29:35 GMT 43.132137 1.399907 38,000 354 460 0
2018-07-21 09:29:30 GMT 43.123444 1.401332 38,000 354 460 0
2018-07-21 09:29:25 GMT 43.109940 1.403503 38,000 354 460 0
2018-07-21 09:29:20 GMT 43.100235 1.405100 37,975 354 460 0
2018-07-21 09:29:13 GMT 43.087143 1.407208 37,975 354 460 0
2018-07-21 09:29:08 GMT 43.076981 1.408933 37,975 354 460 0
2018-07-21 09:29:03 GMT 43.065380 1.410828 37,975 354 460 0
2018-07-21 09:28:59 GMT 43.056702 1.412254 37,975 354 460 0
2018-07-21 09:28:56 GMT 43.050579 1.413313 37,975 354 460 0
2018-07-21 09:28:52 GMT 43.042328 1.414681 37,975 354 461 0
2018-07-21 09:28:46 GMT 43.030472 1.416661 37,975 354 461 0
2018-07-21 09:28:43 GMT 43.022049 1.418067 37,975 354 461 0
2018-07-21 09:28:37 GMT 43.010822 1.419918 37,975 354 461 0
2018-07-21 09:28:34 GMT 43.004444 1.420964 38,000 354 461 0
2018-07-21 09:28:31 GMT 42.998116 1.422010 37,975 354 461 0
2018-07-21 09:28:25 GMT 42.985825 1.424037 37,975 354 461 0
2018-07-21 09:28:22 GMT 42.976513 1.425541 37,975 354 461 0
2018-07-21 09:28:14 GMT 42.958923 1.428414 37,975 354 461 -64
2018-07-21 09:28:11 GMT 42.954449 1.429138 38,000 354 461 0
2018-07-21 09:28:05 GMT 42.941738 1.431231 38,000 354 461 0
2018-07-21 09:28:01 GMT 42.930542 1.433077 38,000 354 461 0
2018-07-21 09:27:50 GMT 42.909760 1.436526 38,000 354 461 0
2018-07-21 09:27:42 GMT 42.893047 1.439274 38,000 354 462 0
2018-07-21 09:27:39 GMT 42.886459 1.440359 38,000 354 462 0
2018-07-21 09:27:32 GMT 42.873322 1.442467 38,000 354 462 0
2018-07-21 09:27:28 GMT 42.864651 1.443917 38,000 354 462 0
2018-07-21 09:27:19 GMT 42.843201 1.447321 38,000 354 462 0
2018-07-21 09:27:07 GMT 42.819855 1.451026 37,975 354 462 0
2018-07-21 09:26:57 GMT 42.798824 1.454283 38,000 354 462 -64
2018-07-21 09:26:46 GMT 42.775501 1.457924 38,000 354 462 0
2018-07-21 09:26:36 GMT 42.752132 1.461629 38,000 354 462 0
2018-07-21 09:26:24 GMT 42.726669 1.465589 38,000 354 462 0
2018-07-21 09:26:16 GMT 42.710979 1.468144 38,000 354 462 0
2018-07-21 09:26:13 GMT 42.702927 1.469421 37,975 354 462 0
2018-07-21 09:26:05 GMT 42.688705 1.471669 37,975 354 462 0
2018-07-21 09:26:02 GMT 42.682583 1.472679 38,000 354 462 0
2018-07-21 09:25:53 GMT 42.661560 1.476038 38,000 354 462 0
2018-07-21 09:25:49 GMT 42.654560 1.477214 38,000 354 462 0
2018-07-21 09:25:46 GMT 42.647141 1.478410 38,000 354 462 0
2018-07-21 09:25:42 GMT 42.636978 1.480033 38,000 354 462 0
2018-07-21 09:25:31 GMT 42.612717 1.483716 38,000 356 464 0
2018-07-21 09:25:21 GMT 42.594727 1.485526 37,975 356 465 0
2018-07-21 09:25:18 GMT 42.588081 1.486220 37,975 356 465 0
2018-07-21 09:25:13 GMT 42.575233 1.487498 38,000 356 465 0
2018-07-21 09:25:09 GMT 42.567924 1.488200 38,000 356 465 0
2018-07-21 09:25:01 GMT 42.549908 1.489925 38,000 356 465 0
2018-07-21 09:24:57 GMT 42.543903 1.490500 38,000 356 465 0
2018-07-21 09:24:51 GMT 42.529999 1.491831 37,975 356 465 0
2018-07-21 09:24:47 GMT 42.521439 1.492642 38,000 356 465 0
2018-07-21 09:24:39 GMT 42.505142 1.494203 38,000 356 465 0
2018-07-21 09:24:35 GMT 42.496326 1.495035 38,000 356 465 0
2018-07-21 09:24:29 GMT 42.482391 1.496450 37,975 356 465 0
2018-07-21 09:24:24 GMT 42.471470 1.497526 37,975 356 465 0
2018-07-21 09:24:19 GMT 42.460762 1.498548 37,975 356 465 0
2018-07-21 09:24:13 GMT 42.448975 1.499634 37,975 357 465 0
2018-07-21 09:24:08 GMT 42.437160 1.500720 37,975 357 466 0
2018-07-21 09:24:05 GMT 42.429012 1.501486 38,000 357 465 0
2018-07-21 09:24:00 GMT 42.418488 1.502380 38,000 357 466 0
2018-07-21 09:23:57 GMT 42.414394 1.502764 38,000 357 466 0
2018-07-21 09:23:54 GMT 42.404945 1.503594 37,975 357 466 0
2018-07-21 09:23:50 GMT 42.399582 1.504066 37,975 357 465 0
2018-07-21 09:23:46 GMT 42.391212 1.504808 37,975 357 465 0
2018-07-21 09:23:43 GMT 42.383438 1.505510 37,975 357 465 0
2018-07-21 09:23:40 GMT 42.376781 1.506085 38,000 357 466 0
2018-07-21 09:23:36 GMT 42.369049 1.506750 38,000 357 466 0
2018-07-21 09:23:31 GMT 42.357647 1.507810 38,000 357 466 0
2018-07-21 09:23:28 GMT 42.351223 1.508448 38,000 356 466 0
2018-07-21 09:23:25 GMT 42.346710 1.508872 38,000 356 466 0
2018-07-21 09:23:21 GMT 42.335953 1.509933 38,000 356 466 0
2018-07-21 09:23:18 GMT 42.329716 1.510492 37,975 356 466 0
2018-07-21 09:23:14 GMT 42.322407 1.511259 38,000 356 466 0
2018-07-21 09:23:11 GMT 42.312538 1.512217 37,975 356 466 0
2018-07-21 09:23:07 GMT 42.306290 1.512805 37,975 356 466 0
2018-07-21 09:23:04 GMT 42.300705 1.513429 37,975 356 466 0
2018-07-21 09:23:00 GMT 42.289730 1.514516 38,000 356 466 0
2018-07-21 09:22:56 GMT 42.283951 1.515177 38,000 356 467 0
2018-07-21 09:22:53 GMT 42.277496 1.515864 38,000 356 466 0
2018-07-21 09:22:48 GMT 42.266739 1.516987 37,975 356 467 0
2018-07-21 09:22:45 GMT 42.258957 1.517799 38,000 356 467 0
2018-07-21 09:22:42 GMT 42.253605 1.518349 37,975 356 467 0
2018-07-21 09:22:38 GMT 42.243690 1.519371 38,000 356 467 0
2018-07-21 09:22:34 GMT 42.233772 1.520393 38,000 356 467 0
2018-07-21 09:22:31 GMT 42.228607 1.520968 38,000 356 467 0
2018-07-21 09:22:27 GMT 42.220184 1.521794 38,000 356 467 0
2018-07-21 09:22:23 GMT 42.213104 1.522565 38,000 356 467 0
2018-07-21 09:22:20 GMT 42.205536 1.523292 37,975 356 468 0
2018-07-21 09:22:16 GMT 42.196060 1.524228 38,000 357 468 0
2018-07-21 09:22:12 GMT 42.188736 1.524915 38,000 357 468 0
2018-07-21 09:22:09 GMT 42.180954 1.525601 38,000 357 468 0
2018-07-21 09:22:04 GMT 42.167999 1.526850 38,000 356 468 0
2018-07-21 09:22:01 GMT 42.165619 1.527036 37,975 356 468 0
2018-07-21 09:21:58 GMT 42.159149 1.527674 37,975 357 469 0
2018-07-21 09:21:54 GMT 42.148087 1.528660 37,975 357 469 0
2018-07-21 09:21:51 GMT 42.143974 1.529080 37,975 357 471 0
2018-07-21 09:21:48 GMT 42.136414 1.529721 37,975 357 470 0
2018-07-21 09:21:43 GMT 42.126656 1.530613 37,975 357 470 0
2018-07-21 09:21:40 GMT 42.118416 1.531315 37,975 357 471 0
2018-07-21 09:21:37 GMT 42.113846 1.531719 37,975 357 471 0
2018-07-21 09:21:30 GMT 42.097980 1.533168 37,975 357 471 0
2018-07-21 09:21:27 GMT 42.090408 1.533904 37,975 357 472 0
2018-07-21 09:21:23 GMT 42.079514 1.534902 38,000 357 472 0
2018-07-21 09:21:19 GMT 42.074051 1.535403 38,000 357 472 0
2018-07-21 09:21:16 GMT 42.066231 1.536106 38,000 357 472 0
2018-07-21 09:21:11 GMT 42.055340 1.537128 38,000 357 472 0
2018-07-21 09:21:08 GMT 42.049026 1.537711 38,000 356 472 0
2018-07-21 09:21:05 GMT 42.043560 1.538214 38,000 356 472 0
2018-07-21 09:20:59 GMT 42.027649 1.539709 38,000 357 473 0
2018-07-21 09:20:55 GMT 42.020691 1.540333 38,000 357 473 0
2018-07-21 09:20:48 GMT 42.002594 1.541982 38,000 356 472 0
2018-07-21 09:20:44 GMT 41.996704 1.542580 38,000 357 473 0
2018-07-21 09:20:39 GMT 41.984940 1.543642 38,000 357 473 0
2018-07-21 09:20:33 GMT 41.972763 1.544765 38,000 357 473 0
2018-07-21 09:20:29 GMT 41.962280 1.545701 38,000 357 473 0
2018-07-21 09:20:26 GMT 41.955528 1.546326 38,000 357 473 0
2018-07-21 09:20:21 GMT 41.948082 1.546964 38,000 357 473 0
2018-07-21 09:20:18 GMT 41.938293 1.547886 38,000 357 473 0
2018-07-21 09:20:15 GMT 41.929550 1.548698 38,000 357 473 0
2018-07-21 09:20:10 GMT 41.924332 1.549135 38,000 357 473 0
2018-07-21 09:20:04 GMT 41.906651 1.550797 38,000 356 473 0
2018-07-21 09:19:59 GMT 41.897278 1.551694 38,000 356 473 0
2018-07-21 09:19:56 GMT 41.891602 1.552256 38,000 356 473 0
2018-07-21 09:19:50 GMT 41.878967 1.553442 38,000 356 473 0
2018-07-21 09:19:46 GMT 41.868484 1.554441 38,000 356 473 0
2018-07-21 09:19:42 GMT 41.859959 1.555268 38,000 356 473 0
2018-07-21 09:19:38 GMT 41.850174 1.556188 37,975 356 473 0
2018-07-21 09:19:35 GMT 41.844040 1.556750 37,975 356 473 0
2018-07-21 09:19:31 GMT 41.833378 1.557759 38,000 356 471 0
2018-07-21 09:19:27 GMT 41.829208 1.558186 38,000 357 473 0
2018-07-21 09:19:24 GMT 41.820923 1.558935 38,000 357 473 0
2018-07-21 09:19:19 GMT 41.809158 1.560059 38,000 357 473 0
2018-07-21 09:19:15 GMT 41.802372 1.560697 38,000 356 472 -64
2018-07-21 09:19:12 GMT 41.797157 1.561208 38,000 356 472 0
2018-07-21 09:19:08 GMT 41.787151 1.562166 38,000 356 472 0
2018-07-21 09:19:04 GMT 41.780365 1.562805 38,000 356 472 0
2018-07-21 09:19:01 GMT 41.773407 1.563429 38,000 356 472 0
2018-07-21 09:18:56 GMT 41.760571 1.564594 38,000 356 472 0
2018-07-21 09:18:53 GMT 41.755310 1.565105 38,000 356 472 0
2018-07-21 09:18:50 GMT 41.748138 1.565801 38,000 356 472 0
2018-07-21 09:18:44 GMT 41.733990 1.567149 38,000 356 472 0
2018-07-21 09:18:41 GMT 41.726585 1.567851 37,975 356 471 0
2018-07-21 09:18:36 GMT 41.717651 1.568735 38,000 356 471 0
2018-07-21 09:18:32 GMT 41.709175 1.569576 38,000 356 471 0
2018-07-21 09:18:29 GMT 41.702454 1.570233 37,975 356 471 0
2018-07-21 09:18:24 GMT 41.691345 1.571300 37,975 356 471 0
2018-07-21 09:18:19 GMT 41.680710 1.572356 37,975 356 471 0
2018-07-21 09:18:16 GMT 41.672012 1.573167 37,975 356 471 0
2018-07-21 09:18:12 GMT 41.666382 1.573729 37,975 356 471 0
2018-07-21 09:18:09 GMT 41.657684 1.574541 37,975 356 471 0
2018-07-21 09:18:06 GMT 41.653336 1.574915 37,975 357 471 -64
2018-07-21 09:18:03 GMT 41.646191 1.575580 38,000 357 471 -64
2018-07-21 09:18:00 GMT 41.637680 1.576351 38,000 357 471 -64
2018-07-21 09:17:57 GMT 41.633156 1.576794 38,000 357 471 0
2018-07-21 09:17:52 GMT 41.623146 1.577688 38,000 357 471 0
2018-07-21 09:17:49 GMT 41.613186 1.578582 38,000 357 470 0
2018-07-21 09:17:46 GMT 41.609695 1.578838 38,000 357 470 0
2018-07-21 09:17:41 GMT 41.596024 1.580096 38,000 357 470 0
2018-07-21 09:17:38 GMT 41.591492 1.580498 38,000 357 470 0
2018-07-21 09:17:35 GMT 41.585857 1.581009 38,000 357 470 0
2018-07-21 09:17:30 GMT 41.573502 1.582094 37,975 357 469 0
2018-07-21 09:17:27 GMT 41.566353 1.582798 37,975 356 469 0
2018-07-21 09:17:24 GMT 41.562908 1.583117 37,975 356 469 0
2018-07-21 09:17:19 GMT 41.552063 1.584139 37,975 356 469 0
2018-07-21 09:17:16 GMT 41.545174 1.584778 37,975 356 469 0
2018-07-21 09:17:12 GMT 41.533264 1.585901 38,000 356 469 0
2018-07-21 09:17:09 GMT 41.529373 1.586276 38,000 356 468 0
2018-07-21 09:17:06 GMT 41.521385 1.587013 38,000 356 468 0
2018-07-21 09:17:02 GMT 41.512939 1.587774 38,000 356 468 0
2018-07-21 09:16:58 GMT 41.504532 1.588546 38,000 356 468 0
2018-07-21 09:16:55 GMT 41.497177 1.589249 38,000 357 467 384
2018-07-21 09:16:52 GMT 41.493073 1.589647 38,000 356 468 -128
2018-07-21 09:16:48 GMT 41.483814 1.590526 38,000 356 467 128
2018-07-21 09:16:44 GMT 41.473480 1.591485 37,975 357 466 640
2018-07-21 09:16:41 GMT 41.469620 1.591804 37,950 357 466 704
2018-07-21 09:16:38 GMT 41.462082 1.592518 37,850 357 466 768
2018-07-21 09:16:33 GMT 41.450455 1.593579 37,825 357 466 768
2018-07-21 09:16:30 GMT 41.445503 1.594040 37,650 357 466 896
2018-07-21 09:16:25 GMT 41.434750 1.594998 37,725 357 466 704
2018-07-21 09:16:22 GMT 41.426788 1.595702 37,725 357 466 768
2018-07-21 09:16:18 GMT 41.419296 1.596403 37,600 357 466 896
2018-07-21 09:16:15 GMT 41.410492 1.597200 37,600 357 466 896
2018-07-21 09:16:10 GMT 41.401886 1.597949 37,375 357 466 1088
2018-07-21 09:16:07 GMT 41.395432 1.598511 37,500 357 467 1088
2018-07-21 09:16:00 GMT 41.378422 1.600071 37,325 357 467 1024
2018-07-21 09:15:56 GMT 41.372177 1.600586 37,300 357 467 1088
2018-07-21 09:15:51 GMT 41.361618 1.601569 37,200 357 468 1152
2018-07-21 09:15:46 GMT 41.350616 1.602539 37,100 357 469 1152
2018-07-21 09:15:38 GMT 41.332855 1.604187 36,950 357 469 960
2018-07-21 09:15:35 GMT 41.327682 1.604614 36,900 356 469 768
2018-07-21 09:15:31 GMT 41.316647 1.605689 36,850 356 469 1088
2018-07-21 09:15:27 GMT 41.308826 1.606376 36,750 356 469 1152
2018-07-21 09:15:24 GMT 41.303242 1.606875 36,725 356 469 1088
2018-07-21 09:15:18 GMT 41.290253 1.608124 36,625 356 469 832
2018-07-21 09:15:15 GMT 41.282684 1.608826 36,575 356 469 832
2018-07-21 09:15:11 GMT 41.274902 1.609558 36,525 356 469 896
2018-07-21 09:15:05 GMT 41.260620 1.610901 36,450 356 467 512
2018-07-21 09:15:02 GMT 41.256317 1.611328 36,425 356 467 448
2018-07-21 09:14:58 GMT 41.245972 1.612305 36,375 356 466 512
2018-07-21 09:14:54 GMT 41.238022 1.613055 36,275 356 465 448
2018-07-21 09:14:51 GMT 41.231369 1.613708 36,325 356 464 512
2018-07-21 09:14:44 GMT 41.215073 1.615295 36,200 356 464 1408
2018-07-21 09:14:40 GMT 41.208664 1.615906 36,175 356 464 1344
2018-07-21 09:14:37 GMT 41.201843 1.616577 36,100 356 465 1152
2018-07-21 09:14:32 GMT 41.189392 1.617798 36,000 356 465 192
2018-07-21 09:14:27 GMT 41.180992 1.618611 36,000 356 465 0
2018-07-21 09:14:22 GMT 41.168793 1.619812 36,000 356 465 0
2018-07-21 09:14:16 GMT 41.157211 1.620911 36,000 356 465 0
2018-07-21 09:14:11 GMT 41.146042 1.622009 35,975 356 466 0
2018-07-21 09:14:06 GMT 41.134254 1.623105 35,975 356 466 0
2018-07-21 09:14:01 GMT 41.123081 1.624166 35,975 356 466 0
2018-07-21 09:13:56 GMT 41.113632 1.625103 35,975 356 466 0
2018-07-21 09:13:52 GMT 41.104603 1.625977 35,975 356 466 0
2018-07-21 09:13:49 GMT 41.098549 1.626538 35,975 356 466 0
2018-07-21 09:13:44 GMT 41.089100 1.627412 35,975 356 466 0
2018-07-21 09:13:38 GMT 41.075134 1.628723 35,975 357 467 0
2018-07-21 09:13:33 GMT 41.065453 1.629597 35,975 357 467 0
2018-07-21 09:13:30 GMT 41.058983 1.630159 36,000 357 467 0
2018-07-21 09:13:27 GMT 41.051674 1.630846 35,975 357 467 0
2018-07-21 09:13:24 GMT 41.044315 1.631470 36,000 357 467 0
2018-07-21 09:13:18 GMT 41.031422 1.632593 36,000 357 467 0
2018-07-21 09:13:15 GMT 41.026886 1.632996 36,000 357 467 0
2018-07-21 09:13:12 GMT 41.020386 1.633545 36,000 357 467 0
2018-07-21 09:13:09 GMT 41.013519 1.634155 36,000 357 467 -64
2018-07-21 09:13:05 GMT 41.001629 1.635215 36,000 357 468 0
2018-07-21 09:13:01 GMT 40.996040 1.635652 36,000 357 468 0
2018-07-21 09:12:58 GMT 40.989761 1.636230 36,000 357 468 0
2018-07-21 09:12:54 GMT 40.979370 1.637085 35,975 357 473 1216
2018-07-21 09:12:49 GMT 40.968761 1.638024 36,000 357 471 320
2018-07-21 09:12:45 GMT 40.958755 1.638898 35,975 357 472 1280
2018-07-21 09:12:42 GMT 40.953541 1.639397 35,925 357 472 1344
2018-07-21 09:12:38 GMT 40.945496 1.640076 35,575 357 473 1216
2018-07-21 09:12:35 GMT 40.937851 1.640771 35,750 357 473 1280
2018-07-21 09:12:32 GMT 40.930450 1.641457 35,700 357 473 1216
2018-07-21 09:12:28 GMT 40.923000 1.642082 35,625 357 473 1216
2018-07-21 09:12:24 GMT 40.914047 1.642883 35,525 357 474 1344
2018-07-21 09:12:21 GMT 40.905964 1.643642 35,475 357 474 1344
2018-07-21 09:12:13 GMT 40.889145 1.645081 35,275 357 475 1536
2018-07-21 09:12:10 GMT 40.881943 1.645764 35,200 357 475 1472
2018-07-21 09:12:06 GMT 40.876007 1.646240 35,000 357 476 1472
2018-07-21 09:12:02 GMT 40.866116 1.647138 35,000 357 476 1408
2018-07-21 09:11:59 GMT 40.856689 1.648010 34,925 357 476 1344
2018-07-21 09:11:55 GMT 40.852295 1.648376 34,875 357 476 1344
2018-07-21 09:11:49 GMT 40.839569 1.649475 34,750 357 477 1408
2018-07-21 09:11:45 GMT 40.830547 1.650321 34,650 357 477 1472
2018-07-21 09:11:40 GMT 40.817093 1.651489 34,500 357 479 1408
2018-07-21 09:11:35 GMT 40.806976 1.652405 34,375 357 479 1216
2018-07-21 09:11:29 GMT 40.793701 1.653564 34,225 357 479 1280
2018-07-21 09:11:22 GMT 40.778923 1.654941 34,100 357 479 896
2018-07-21 09:11:19 GMT 40.769192 1.655814 34,050 357 478 576
2018-07-21 09:11:16 GMT 40.765656 1.656127 34,025 356 477 128
2018-07-21 09:11:12 GMT 40.756859 1.656938 34,000 357 477 0
2018-07-21 09:11:08 GMT 40.745178 1.658020 34,000 357 476 -64
2018-07-21 09:11:02 GMT 40.733116 1.659123 34,000 357 476 0
2018-07-21 09:10:58 GMT 40.723015 1.659997 34,000 357 476 0
2018-07-21 09:10:51 GMT 40.708740 1.661316 34,000 357 474 128
2018-07-21 09:10:46 GMT 40.699951 1.662170 34,000 357 475 0
2018-07-21 09:10:39 GMT 40.682652 1.663742 33,975 357 473 640
2018-07-21 09:10:36 GMT 40.676788 1.664246 33,950 357 471 1024
2018-07-21 09:10:33 GMT 40.671982 1.664673 33,800 357 471 1280
2018-07-21 09:10:28 GMT 40.660675 1.665710 33,800 357 471 1216
2018-07-21 09:10:25 GMT 40.653305 1.666321 33,650 357 471 1408
2018-07-21 09:10:20 GMT 40.643280 1.667236 33,650 357 471 1408
2018-07-21 09:10:17 GMT 40.637451 1.667737 33,575 357 471 1472
2018-07-21 09:10:13 GMT 40.628746 1.668549 33,475 357 471 1664
2018-07-21 09:10:07 GMT 40.614166 1.669800 33,275 357 472 1472
2018-07-21 09:10:03 GMT 40.606121 1.670546 32,825 357 473 1344
2018-07-21 09:09:52 GMT 40.581894 1.672729 32,825 357 473 1344
2018-07-21 09:09:45 GMT 40.566410 1.674104 32,725 356 472 1344
2018-07-21 09:09:42 GMT 40.559429 1.674728 32,475 356 472 1152
2018-07-21 09:09:34 GMT 40.542252 1.676331 32,350 356 472 1408
2018-07-21 09:09:30 GMT 40.532848 1.677163 32,400 356 472 1472
2018-07-21 09:09:20 GMT 40.511524 1.679223 32,150 356 472 1472
2018-07-21 09:09:10 GMT 40.490623 1.681158 31,875 356 471 1344
2018-07-21 09:09:06 GMT 40.479996 1.682190 31,875 356 471 1344
2018-07-21 09:08:59 GMT 40.465622 1.683533 31,675 356 470 1216
2018-07-21 09:08:51 GMT 40.446354 1.685403 31,475 356 469 1216
2018-07-21 09:08:48 GMT 40.442024 1.685840 31,300 356 468 1280
2018-07-21 09:08:40 GMT 40.423866 1.687587 31,250 356 468 1216
2018-07-21 09:08:37 GMT 40.418236 1.688149 31,175 356 468 1216
2018-07-21 09:08:27 GMT 40.396866 1.690125 31,000 357 467 1280
2018-07-21 09:08:24 GMT 40.391514 1.690646 30,925 357 466 1280
2018-07-21 09:08:15 GMT 40.370636 1.692383 30,725 356 465 1408
2018-07-21 09:08:07 GMT 40.352455 1.694454 30,525 352 459 1408
2018-07-21 09:08:04 GMT 40.349106 1.695140 30,475 350 457 1536
2018-07-21 09:07:57 GMT 40.331043 1.700259 30,250 344 449 1600
2018-07-21 09:07:54 GMT 40.327087 1.701820 30,150 308 413 2368
2018-07-21 09:07:43 GMT 40.306885 1.712057 29,900 334 436 1600
2018-07-21 09:07:33 GMT 40.289200 1.724854 29,625 326 426 1664
2018-07-21 09:07:23 GMT 40.273361 1.739990 29,150 315 417 1792
2018-07-21 09:07:19 GMT 40.267502 1.747013 29,150 315 417 1792
2018-07-21 09:07:14 GMT 40.260284 1.757438 28,950 308 411 2176
2018-07-21 09:07:11 GMT 40.257797 1.761475 28,900 308 411 2304
2018-07-21 09:07:01 GMT 40.245201 1.783031 28,475 308 413 2368
2018-07-21 09:06:49 GMT 40.232445 1.804879 28,050 308 415 2432
2018-07-21 09:06:41 GMT 40.222019 1.822919 27,675 308 417 2496
2018-07-21 09:06:36 GMT 40.217594 1.830597 27,525 308 418 2496
2018-07-21 09:06:30 GMT 40.208817 1.845703 27,200 307 420 2624
2018-07-21 09:06:27 GMT 40.206482 1.849792 27,125 307 420 2624
2018-07-21 09:06:18 GMT 40.195065 1.869486 26,700 308 423 2240
2018-07-21 09:06:08 GMT 40.183987 1.888650 26,375 308 422 1792
2018-07-21 09:06:05 GMT 40.181145 1.893519 26,375 308 422 1792
2018-07-21 09:05:55 GMT 40.168808 1.914856 26,075 308 421 1728
2018-07-21 09:05:42 GMT 40.147522 1.951660 25,575 308 418 1728
2018-07-21 09:05:35 GMT 40.144501 1.956909 25,500 307 417 1536
2018-07-21 09:05:23 GMT 40.131317 1.979858 25,200 307 415 1856
2018-07-21 09:05:10 GMT 40.110443 2.015747 24,675 308 413 1792
2018-07-21 09:05:03 GMT 40.108013 2.019924 24,600 308 412 1728
2018-07-21 09:04:53 GMT 40.096001 2.040461 24,275 308 410 1664
2018-07-21 09:04:50 GMT 40.093719 2.044393 24,275 308 410 1664
2018-07-21 09:04:42 GMT 40.083023 2.062622 24,000 308 407 1856
2018-07-21 09:04:34 GMT 40.075146 2.076041 23,800 308 406 1920
2018-07-21 09:04:31 GMT 40.071281 2.082658 23,500 308 402 1792
2018-07-21 09:04:19 GMT 40.058060 2.105130 23,300 308 403 2112
2018-07-21 09:04:09 GMT 40.045399 2.126728 22,950 308 401 1920
2018-07-21 09:04:04 GMT 40.041458 2.133423 22,850 308 400 2048
2018-07-21 09:03:58 GMT 40.034599 2.145081 22,650 308 399 1984
2018-07-21 09:03:54 GMT 40.029850 2.153133 22,325 308 396 2176
2018-07-21 09:03:48 GMT 40.022728 2.165305 22,300 308 396 2176
2018-07-21 09:03:44 GMT 40.018494 2.172546 22,175 308 396 2176
2018-07-21 09:03:36 GMT 40.009918 2.187073 21,900 308 395 2240
2018-07-21 09:03:30 GMT 40.003593 2.197827 21,675 308 394 2304
2018-07-21 09:03:27 GMT 39.999023 2.205566 21,325 308 393 2048
2018-07-21 09:03:22 GMT 39.994583 2.213074 21,375 308 393 1984
2018-07-21 09:03:15 GMT 39.986092 2.227540 21,125 308 391 2496
2018-07-21 09:03:11 GMT 39.982224 2.234070 20,975 308 390 2560
2018-07-21 09:03:06 GMT 39.976730 2.243408 20,775 308 390 2432
2018-07-21 09:03:02 GMT 39.971752 2.251823 20,575 308 389 2560
2018-07-21 09:02:54 GMT 39.961990 2.268372 20,200 308 388 2496
2018-07-21 09:02:51 GMT 39.959930 2.271923 20,125 308 388 2432
2018-07-21 09:02:41 GMT 39.948898 2.290649 19,750 308 387 2304
2018-07-21 09:02:30 GMT 39.937721 2.309626 19,375 308 385 2176
2018-07-21 09:02:20 GMT 39.926834 2.328186 18,950 308 380 2304
2018-07-21 09:02:17 GMT 39.923477 2.333846 18,900 308 381 2240
2018-07-21 09:02:10 GMT 39.915665 2.347074 18,625 308 379 2304
2018-07-21 09:02:07 GMT 39.912586 2.352356 18,500 308 379 2368
2018-07-21 09:02:01 GMT 39.906395 2.362793 18,300 308 378 2368
2018-07-21 09:01:58 GMT 39.903488 2.367673 18,125 308 376 2432
2018-07-21 09:01:55 GMT 39.899364 2.374695 18,025 308 375 2496
2018-07-21 09:01:48 GMT 39.892914 2.385586 17,550 308 374 2432
2018-07-21 09:01:45 GMT 39.889217 2.391846 17,650 308 373 2304
2018-07-21 09:01:40 GMT 39.883804 2.400931 17,450 308 372 2432
2018-07-21 09:01:37 GMT 39.880978 2.405701 17,350 308 372 2560
2018-07-21 09:01:29 GMT 39.872131 2.420593 16,925 308 371 2752
2018-07-21 09:01:26 GMT 39.869293 2.425351 16,850 308 371 2752
2018-07-21 09:01:19 GMT 39.862381 2.436994 16,475 308 370 2752
2018-07-21 09:01:16 GMT 39.858677 2.443115 16,425 308 370 2880
2018-07-21 09:01:06 GMT 39.847179 2.462463 15,925 308 369 2688
2018-07-21 09:00:57 GMT 39.839314 2.475830 15,550 308 368 2752
2018-07-21 09:00:54 GMT 39.835464 2.482313 15,425 308 368 2624
2018-07-21 09:00:46 GMT 39.827591 2.495628 15,100 308 365 2432
2018-07-21 09:00:43 GMT 39.824600 2.500671 15,000 308 365 2624
2018-07-21 09:00:33 GMT 39.813812 2.518855 14,400 308 362 1856
2018-07-21 09:00:28 GMT 39.809006 2.526978 14,400 308 362 1856
2018-07-21 09:00:25 GMT 39.805561 2.532837 14,325 308 358 1664
2018-07-21 09:00:21 GMT 39.801819 2.539155 14,225 308 358 1664
2018-07-21 09:00:14 GMT 39.795181 2.550440 14,075 308 357 384
2018-07-21 09:00:11 GMT 39.791641 2.556396 14,050 308 357 384
2018-07-21 09:00:08 GMT 39.788544 2.561725 14,050 308 357 384
2018-07-21 09:00:02 GMT 39.782547 2.571876 14,000 308 353 448
2018-07-21 08:59:59 GMT 39.780052 2.576111 14,000 308 351 832
2018-07-21 08:59:51 GMT 39.772137 2.589478 13,875 308 346 1856
2018-07-21 08:59:48 GMT 39.769016 2.594727 13,775 308 345 2240
2018-07-21 08:59:41 GMT 39.761902 2.606685 13,475 308 345 2944
2018-07-21 08:59:36 GMT 39.757233 2.614567 13,250 308 345 2432
2018-07-21 08:59:31 GMT 39.752026 2.623230 13,050 308 342 2560
2018-07-21 08:59:26 GMT 39.747372 2.630981 12,850 308 341 2752
2018-07-21 08:59:22 GMT 39.743958 2.636659 12,625 308 339 2560
2018-07-21 08:59:11 GMT 39.733406 2.654175 12,250 309 337 2304
2018-07-21 08:59:08 GMT 39.730042 2.659766 12,125 308 336 2368
2018-07-21 08:59:04 GMT 39.726517 2.665588 11,975 309 335 2496
2018-07-21 08:59:01 GMT 39.723629 2.670349 11,850 309 334 2816
2018-07-21 08:58:56 GMT 39.718323 2.679199 11,525 309 332 2112
2018-07-21 08:58:51 GMT 39.713573 2.687012 11,425 309 331 2176
2018-07-21 08:58:40 GMT 39.703766 2.702935 11,025 309 327 2560
2018-07-21 08:58:36 GMT 39.700012 2.709085 10,875 306 323 1344
2018-07-21 08:58:30 GMT 39.694565 2.719236 10,725 300 315 896
2018-07-21 08:58:19 GMT 39.688248 2.737447 10,525 286 297 768
2018-07-21 08:58:09 GMT 39.685875 2.754761 10,350 273 282 1408
2018-07-21 08:58:05 GMT 39.685642 2.761780 10,250 272 278 1472
2018-07-21 08:57:59 GMT 39.685410 2.772034 10,100 274 272 1024
2018-07-21 08:57:53 GMT 39.684990 2.781494 10,000 275 270 960
2018-07-21 08:57:48 GMT 39.684433 2.789551 9,925 276 270 960
2018-07-21 08:57:44 GMT 39.683945 2.795841 9,850 278 270 1152
2018-07-21 08:57:38 GMT 39.682941 2.805908 9,725 279 269 1792
2018-07-21 08:57:33 GMT 39.682022 2.813694 9,600 280 269 2112
2018-07-21 08:57:26 GMT 39.680603 2.823904 9,350 281 269 3136
2018-07-21 08:57:17 GMT 39.678955 2.839249 8,850 273 268 3264
2018-07-21 08:57:06 GMT 39.679077 2.857117 8,225 263 270 3328
2018-07-21 08:56:55 GMT 39.681015 2.874238 7,750 265 268 2112
2018-07-21 08:56:44 GMT 39.680756 2.891235 7,425 286 263 1536
2018-07-21 08:56:38 GMT 39.678383 2.900452 7,300 299 259 1088
2018-07-21 08:56:34 GMT 39.676163 2.905466 7,250 310 255 1024
2018-07-21 08:56:23 GMT 39.666504 2.917646 7,025 332 246 1216
2018-07-21 08:56:17 GMT 39.659912 2.921647 6,900 345 241 1472
2018-07-21 08:56:12 GMT 39.655746 2.923020 6,825 352 239 1984
2018-07-21 08:56:01 GMT 39.643387 2.923199 6,425 13 237 1920
2018-07-21 08:55:58 GMT 39.637928 2.921204 6,275 25 235 2048
2018-07-21 08:55:50 GMT 39.632126 2.917587 6,075 33 234 2496
2018-07-21 08:55:42 GMT 39.625214 2.910660 5,725 48 235 2816
2018-07-21 08:55:31 GMT 39.617798 2.897286 5,225 59 234 3008
2018-07-21 08:55:20 GMT 39.611858 2.884338 4,725 59 233 2880
2018-07-21 08:55:10 GMT 39.606583 2.872746 4,250 58 231 2688

Making use of Plane Finder data

You are free to use the raw flight data, aircraft information and images provided in this report for your own purposes provided the data is correctly attributed to Plane Finder. We ask that you please credit Plane Finder and link to planefinder.net in close proximity to the content.

Optionally one of the following logos (no smaller then 150x24px) can be used and must link to planefinder.net

Embedding the Plane Finder map

You are welcome to embed the Plane Finder playback map on your website to offer visitors a more interactive experience. We suggest using the following HTML code:

<iframe src="//planefinder.net/data/report/BY6750-G-FDZX-7700-squawk-2018-07-21/map" width="800" height="600" seamless="seamless"></iframe>

Where our data comes from

Plane Finder has a global network of data feeds and antenna radars that receive data broadcast directly from aircraft. The primary technologies used are ADS-B and MLAT. We also show feeds from the FAA and a FLARM glider feed.

Click here to find out more about the Plane Finder network.

How we collect our data